<?xml version="1.0" encoding="UTF-8" standalone="no" ?><gpx xmlns="http://www.topografix.com/GPX/1/1" xmlns:gpxx="http://www.garmin.com/xmlschemas/GpxExtensions/v3" xmlns:wptx1="http://www.garmin.com/xmlschemas/WaypointExtension/v1" xmlns:gpxtpx="http://www.garmin.com/xmlschemas/TrackPointExtension/v1" creator="GuideVTT.com" version="1.1" xmlns:xsi="http://www.w3.org/2001/XMLSchema-instance" xsi:schemaLocation="http://www.topografix.com/GPX/1/1 http://www.topografix.com/GPX/1/1/gpx.xsd http://www.garmin.com/xmlschemas/GpxExtensions/v3 http://www8.garmin.com/xmlschemas/GpxExtensionsv3.xsd http://www.garmin.com/xmlschemas/WaypointExtension/v1 http://www8.garmin.com/xmlschemas/WaypointExtensionv1.xsd http://www.garmin.com/xmlschemas/TrackPointExtension/v1 http://www.garmin.com/xmlschemas/TrackPointExtensionv1.xsd">
<metadata><link href="http://www.garmin.com"><text>Garmin International</text></link><time>2013-06-22T15:13:50Z</time></metadata>
<trk><name>rp2018_04.gpx</name><extensions><gpxx:TrackExtension><gpxx:DisplayColor>Cyan</gpxx:DisplayColor></gpxx:TrackExtension></extensions><trkseg>
<trkpt lat="46.48841" lon="6.72602"><ele>393.8</ele><time>2018-05-25T15:53:09Z</time></trkpt>
<trkpt lat="46.48842" lon="6.72605"><ele>393.8</ele><time>2018-05-25T15:53:10Z</time></trkpt>
<trkpt lat="46.4885" lon="6.72626"><ele>393.4</ele><time>2018-05-25T15:53:17Z</time></trkpt>
<trkpt lat="46.48861" lon="6.72667"><ele>392.4</ele><time>2018-05-25T15:53:28Z</time></trkpt>
<trkpt lat="46.48876" lon="6.72687"><ele>391.8</ele><time>2018-05-25T15:53:35Z</time></trkpt>
<trkpt lat="46.48897" lon="6.72689"><ele>390.4</ele><time>2018-05-25T15:53:41Z</time></trkpt>
<trkpt lat="46.48911" lon="6.72689"><ele>390.2</ele><time>2018-05-25T15:53:45Z</time></trkpt>
<trkpt lat="46.4891" lon="6.7266"><ele>389.6</ele><time>2018-05-25T15:53:52Z</time></trkpt>
<trkpt lat="46.48909" lon="6.72641"><ele>390.4</ele><time>2018-05-25T15:53:56Z</time></trkpt>
<trkpt lat="46.48912" lon="6.72617"><ele>391.2</ele><time>2018-05-25T15:54:02Z</time></trkpt>
<trkpt lat="46.48914" lon="6.72592"><ele>392.8</ele><time>2018-05-25T15:54:09Z</time></trkpt>
<trkpt lat="46.48914" lon="6.72582"><ele>393.6</ele><time>2018-05-25T15:54:12Z</time></trkpt>
<trkpt lat="46.48914" lon="6.72575"><ele>393.8</ele><time>2018-05-25T15:54:14Z</time></trkpt>
<trkpt lat="46.48912" lon="6.72562"><ele>394.6</ele><time>2018-05-25T15:54:18Z</time></trkpt>
<trkpt lat="46.48909" lon="6.7254"><ele>394.8</ele><time>2018-05-25T15:54:25Z</time></trkpt>
<trkpt lat="46.4891" lon="6.72506"><ele>395.2</ele><time>2018-05-25T15:54:37Z</time></trkpt>
<trkpt lat="46.48912" lon="6.72502"><ele>395.4</ele><time>2018-05-25T15:54:39Z</time></trkpt>
<trkpt lat="46.48914" lon="6.72495"><ele>395.6</ele><time>2018-05-25T15:54:42Z</time></trkpt>
<trkpt lat="46.4892" lon="6.72479"><ele>396.4</ele><time>2018-05-25T15:54:49Z</time></trkpt>
<trkpt lat="46.48929" lon="6.72454"><ele>398</ele><time>2018-05-25T15:55:00Z</time></trkpt>
<trkpt lat="46.48933" lon="6.72442"><ele>398.8</ele><time>2018-05-25T15:55:05Z</time></trkpt>
<trkpt lat="46.48942" lon="6.72409"><ele>401.6</ele><time>2018-05-25T15:55:20Z</time></trkpt>
<trkpt lat="46.48943" lon="6.72382"><ele>403.8</ele><time>2018-05-25T15:55:32Z</time></trkpt>
<trkpt lat="46.4894" lon="6.72354"><ele>405.6</ele><time>2018-05-25T15:55:44Z</time></trkpt>
<trkpt lat="46.48935" lon="6.72327"><ele>407.4</ele><time>2018-05-25T15:55:55Z</time></trkpt>
<trkpt lat="46.48931" lon="6.72301"><ele>409.8</ele><time>2018-05-25T15:56:06Z</time></trkpt>
<trkpt lat="46.48929" lon="6.72284"><ele>411</ele><time>2018-05-25T15:56:13Z</time></trkpt>
<trkpt lat="46.48928" lon="6.72257"><ele>412.8</ele><time>2018-05-25T15:56:24Z</time></trkpt>
<trkpt lat="46.48929" lon="6.7224"><ele>413.4</ele><time>2018-05-25T15:56:30Z</time></trkpt>
<trkpt lat="46.48933" lon="6.72204"><ele>414.6</ele><time>2018-05-25T15:56:40Z</time></trkpt>
<trkpt lat="46.4894" lon="6.72178"><ele>415.6</ele><time>2018-05-25T15:56:47Z</time></trkpt>
<trkpt lat="46.48942" lon="6.72175"><ele>415.4</ele><time>2018-05-25T15:56:48Z</time></trkpt>
<trkpt lat="46.48954" lon="6.72154"><ele>416.2</ele><time>2018-05-25T15:56:55Z</time></trkpt>
<trkpt lat="46.48968" lon="6.72138"><ele>415.8</ele><time>2018-05-25T15:57:02Z</time></trkpt>
<trkpt lat="46.48983" lon="6.7212"><ele>416.2</ele><time>2018-05-25T15:57:10Z</time></trkpt>
<trkpt lat="46.48992" lon="6.72113"><ele>415</ele><time>2018-05-25T15:57:15Z</time></trkpt>
<trkpt lat="46.49008" lon="6.72098"><ele>415.6</ele><time>2018-05-25T15:57:24Z</time></trkpt>
<trkpt lat="46.49018" lon="6.72089"><ele>416</ele><time>2018-05-25T15:57:30Z</time></trkpt>
<trkpt lat="46.49039" lon="6.72071"><ele>418</ele><time>2018-05-25T15:57:46Z</time></trkpt>
<trkpt lat="46.49048" lon="6.7206"><ele>419.8</ele><time>2018-05-25T15:57:54Z</time></trkpt>
<trkpt lat="46.49055" lon="6.72046"><ele>422.2</ele><time>2018-05-25T15:58:02Z</time></trkpt>
<trkpt lat="46.49059" lon="6.72037"><ele>423.8</ele><time>2018-05-25T15:58:07Z</time></trkpt>
<trkpt lat="46.49066" lon="6.72012"><ele>427</ele><time>2018-05-25T15:58:19Z</time></trkpt>
<trkpt lat="46.49073" lon="6.71987"><ele>429.6</ele><time>2018-05-25T15:58:31Z</time></trkpt>
<trkpt lat="46.49079" lon="6.71962"><ele>432.6</ele><time>2018-05-25T15:58:43Z</time></trkpt>
<trkpt lat="46.49087" lon="6.71938"><ele>435.8</ele><time>2018-05-25T15:58:54Z</time></trkpt>
<trkpt lat="46.49094" lon="6.71911"><ele>438</ele><time>2018-05-25T15:59:06Z</time></trkpt>
<trkpt lat="46.49101" lon="6.71887"><ele>439.2</ele><time>2018-05-25T15:59:16Z</time></trkpt>
<trkpt lat="46.49114" lon="6.71867"><ele>440.2</ele><time>2018-05-25T15:59:27Z</time></trkpt>
<trkpt lat="46.49119" lon="6.71866"><ele>440.6</ele><time>2018-05-25T15:59:30Z</time></trkpt>
<trkpt lat="46.49135" lon="6.71868"><ele>441.4</ele><time>2018-05-25T15:59:40Z</time></trkpt>
<trkpt lat="46.49154" lon="6.71869"><ele>442.4</ele><time>2018-05-25T15:59:51Z</time></trkpt>
<trkpt lat="46.4917" lon="6.71856"><ele>445.2</ele><time>2018-05-25T16:00:04Z</time></trkpt>
<trkpt lat="46.49184" lon="6.71838"><ele>448.4</ele><time>2018-05-25T16:00:18Z</time></trkpt>
<trkpt lat="46.49197" lon="6.71823"><ele>451.4</ele><time>2018-05-25T16:00:31Z</time></trkpt>
<trkpt lat="46.49213" lon="6.71803"><ele>454.8</ele><time>2018-05-25T16:00:51Z</time></trkpt>
<trkpt lat="46.49217" lon="6.71796"><ele>455.2</ele><time>2018-05-25T16:00:57Z</time></trkpt>
<trkpt lat="46.49219" lon="6.71794"><ele>455.4</ele><time>2018-05-25T16:00:59Z</time></trkpt>
<trkpt lat="46.49227" lon="6.71784"><ele>457</ele><time>2018-05-25T16:01:09Z</time></trkpt>
<trkpt lat="46.49235" lon="6.71764"><ele>460</ele><time>2018-05-25T16:01:24Z</time></trkpt>
<trkpt lat="46.49243" lon="6.71743"><ele>463</ele><time>2018-05-25T16:01:39Z</time></trkpt>
<trkpt lat="46.4925" lon="6.71724"><ele>465.4</ele><time>2018-05-25T16:01:53Z</time></trkpt>
<trkpt lat="46.4926" lon="6.71703"><ele>468.4</ele><time>2018-05-25T16:02:09Z</time></trkpt>
<trkpt lat="46.49263" lon="6.71698"><ele>469</ele><time>2018-05-25T16:02:13Z</time></trkpt>
<trkpt lat="46.4927" lon="6.71685"><ele>470</ele><time>2018-05-25T16:02:23Z</time></trkpt>
<trkpt lat="46.49278" lon="6.71677"><ele>471.4</ele><time>2018-05-25T16:02:32Z</time></trkpt>
<trkpt lat="46.49283" lon="6.71669"><ele>472.4</ele><time>2018-05-25T16:02:39Z</time></trkpt>
<trkpt lat="46.49285" lon="6.71666"><ele>472.8</ele><time>2018-05-25T16:02:42Z</time></trkpt>
<trkpt lat="46.49289" lon="6.71661"><ele>473.2</ele><time>2018-05-25T16:02:47Z</time></trkpt>
<trkpt lat="46.49298" lon="6.71652"><ele>475</ele><time>2018-05-25T16:02:56Z</time></trkpt>
<trkpt lat="46.49313" lon="6.71643"><ele>478</ele><time>2018-05-25T16:03:08Z</time></trkpt>
<trkpt lat="46.49319" lon="6.71642"><ele>479</ele><time>2018-05-25T16:03:12Z</time></trkpt>
<trkpt lat="46.49332" lon="6.71642"><ele>480.4</ele><time>2018-05-25T16:03:21Z</time></trkpt>
<trkpt lat="46.49354" lon="6.71625"><ele>484.2</ele><time>2018-05-25T16:03:36Z</time></trkpt>
<trkpt lat="46.49367" lon="6.71605"><ele>488</ele><time>2018-05-25T16:03:47Z</time></trkpt>
<trkpt lat="46.49383" lon="6.71591"><ele>489</ele><time>2018-05-25T16:03:53Z</time></trkpt>
<trkpt lat="46.49401" lon="6.71579"><ele>488.8</ele><time>2018-05-25T16:03:59Z</time></trkpt>
<trkpt lat="46.49421" lon="6.71575"><ele>489.8</ele><time>2018-05-25T16:04:07Z</time></trkpt>
<trkpt lat="46.49437" lon="6.71553"><ele>491.2</ele><time>2018-05-25T16:04:13Z</time></trkpt>
<trkpt lat="46.49453" lon="6.71536"><ele>490.6</ele><time>2018-05-25T16:04:18Z</time></trkpt>
<trkpt lat="46.49468" lon="6.7152"><ele>489.6</ele><time>2018-05-25T16:04:24Z</time></trkpt>
<trkpt lat="46.49481" lon="6.71508"><ele>490.2</ele><time>2018-05-25T16:04:30Z</time></trkpt>
<trkpt lat="46.49497" lon="6.71494"><ele>493.4</ele><time>2018-05-25T16:04:39Z</time></trkpt>
<trkpt lat="46.4951" lon="6.71484"><ele>496.6</ele><time>2018-05-25T16:04:47Z</time></trkpt>
<trkpt lat="46.49515" lon="6.71483"><ele>496.4</ele><time>2018-05-25T16:04:52Z</time></trkpt>
<trkpt lat="46.49526" lon="6.71475"><ele>497.4</ele><time>2018-05-25T16:05:06Z</time></trkpt>
<trkpt lat="46.49542" lon="6.71458"><ele>498</ele><time>2018-05-25T16:05:13Z</time></trkpt>
<trkpt lat="46.49553" lon="6.71433"><ele>498.2</ele><time>2018-05-25T16:05:21Z</time></trkpt>
<trkpt lat="46.49559" lon="6.71406"><ele>498.8</ele><time>2018-05-25T16:05:29Z</time></trkpt>
<trkpt lat="46.49563" lon="6.71379"><ele>497.6</ele><time>2018-05-25T16:05:36Z</time></trkpt>
<trkpt lat="46.49563" lon="6.71333"><ele>499.2</ele><time>2018-05-25T16:05:47Z</time></trkpt>
<trkpt lat="46.4957" lon="6.71317"><ele>500</ele><time>2018-05-25T16:05:52Z</time></trkpt>
<trkpt lat="46.49586" lon="6.71304"><ele>503.8</ele><time>2018-05-25T16:06:04Z</time></trkpt>
<trkpt lat="46.49597" lon="6.71308"><ele>506.4</ele><time>2018-05-25T16:06:15Z</time></trkpt>
<trkpt lat="46.49599" lon="6.71309"><ele>506.8</ele><time>2018-05-25T16:06:17Z</time></trkpt>
<trkpt lat="46.49609" lon="6.7131"><ele>509</ele><time>2018-05-25T16:06:32Z</time></trkpt>
<trkpt lat="46.49625" lon="6.71326"><ele>513.6</ele><time>2018-05-25T16:06:48Z</time></trkpt>
<trkpt lat="46.49628" lon="6.7133"><ele>514.8</ele><time>2018-05-25T16:06:52Z</time></trkpt>
<trkpt lat="46.49643" lon="6.71348"><ele>518.2</ele><time>2018-05-25T16:07:06Z</time></trkpt>
<trkpt lat="46.49656" lon="6.71364"><ele>521.2</ele><time>2018-05-25T16:07:16Z</time></trkpt>
<trkpt lat="46.49672" lon="6.71377"><ele>524</ele><time>2018-05-25T16:07:30Z</time></trkpt>
<trkpt lat="46.49689" lon="6.71365"><ele>524.8</ele><time>2018-05-25T16:07:43Z</time></trkpt>
<trkpt lat="46.49704" lon="6.71358"><ele>525.2</ele><time>2018-05-25T16:07:52Z</time></trkpt>
<trkpt lat="46.49721" lon="6.7135"><ele>526.4</ele><time>2018-05-25T16:08:03Z</time></trkpt>
<trkpt lat="46.49738" lon="6.71341"><ele>528.4</ele><time>2018-05-25T16:08:16Z</time></trkpt>
<trkpt lat="46.49752" lon="6.71334"><ele>530.6</ele><time>2018-05-25T16:08:30Z</time></trkpt>
<trkpt lat="46.49769" lon="6.71331"><ele>533.6</ele><time>2018-05-25T16:08:47Z</time></trkpt>
<trkpt lat="46.49782" lon="6.71338"><ele>536.2</ele><time>2018-05-25T16:09:03Z</time></trkpt>
<trkpt lat="46.49784" lon="6.7134"><ele>537</ele><time>2018-05-25T16:09:06Z</time></trkpt>
<trkpt lat="46.49786" lon="6.71347"><ele>538</ele><time>2018-05-25T16:09:12Z</time></trkpt>
<trkpt lat="46.49801" lon="6.71358"><ele>540.8</ele><time>2018-05-25T16:09:39Z</time></trkpt>
<trkpt lat="46.49808" lon="6.71366"><ele>541.8</ele><time>2018-05-25T16:09:49Z</time></trkpt>
<trkpt lat="46.49813" lon="6.71372"><ele>543</ele><time>2018-05-25T16:09:57Z</time></trkpt>
<trkpt lat="46.49819" lon="6.71378"><ele>544.8</ele><time>2018-05-25T16:10:07Z</time></trkpt>
<trkpt lat="46.49836" lon="6.7139"><ele>548.4</ele><time>2018-05-25T16:10:30Z</time></trkpt>
<trkpt lat="46.49844" lon="6.71394"><ele>549.4</ele><time>2018-05-25T16:10:38Z</time></trkpt>
<trkpt lat="46.49861" lon="6.71389"><ele>552.6</ele><time>2018-05-25T16:10:56Z</time></trkpt>
<trkpt lat="46.49868" lon="6.71385"><ele>555.2</ele><time>2018-05-25T16:11:04Z</time></trkpt>
<trkpt lat="46.49889" lon="6.71374"><ele>560.4</ele><time>2018-05-25T16:11:26Z</time></trkpt>
<trkpt lat="46.49902" lon="6.71365"><ele>564.6</ele><time>2018-05-25T16:11:41Z</time></trkpt>
<trkpt lat="46.49911" lon="6.71358"><ele>566.6</ele><time>2018-05-25T16:11:50Z</time></trkpt>
<trkpt lat="46.49922" lon="6.71354"><ele>569</ele><time>2018-05-25T16:11:59Z</time></trkpt>
<trkpt lat="46.49925" lon="6.71354"><ele>569.8</ele><time>2018-05-25T16:12:02Z</time></trkpt>
<trkpt lat="46.4993" lon="6.71356"><ele>570.6</ele><time>2018-05-25T16:12:06Z</time></trkpt>
<trkpt lat="46.49953" lon="6.71361"><ele>572.2</ele><time>2018-05-25T16:12:23Z</time></trkpt>
<trkpt lat="46.4997" lon="6.7137"><ele>572.4</ele><time>2018-05-25T16:12:35Z</time></trkpt>
<trkpt lat="46.49989" lon="6.71378"><ele>572.2</ele><time>2018-05-25T16:12:48Z</time></trkpt>
<trkpt lat="46.50006" lon="6.71381"><ele>573.6</ele><time>2018-05-25T16:13:01Z</time></trkpt>
<trkpt lat="46.50009" lon="6.71379"><ele>574.2</ele><time>2018-05-25T16:13:04Z</time></trkpt>
<trkpt lat="46.50011" lon="6.7138"><ele>574.4</ele><time>2018-05-25T16:13:06Z</time></trkpt>
<trkpt lat="46.50025" lon="6.7138"><ele>576</ele><time>2018-05-25T16:13:18Z</time></trkpt>
<trkpt lat="46.50048" lon="6.71384"><ele>579.6</ele><time>2018-05-25T16:13:39Z</time></trkpt>
<trkpt lat="46.50049" lon="6.71385"><ele>579.6</ele><time>2018-05-25T16:13:40Z</time></trkpt>
<trkpt lat="46.50053" lon="6.71385"><ele>580.6</ele><time>2018-05-25T16:13:45Z</time></trkpt>
<trkpt lat="46.50063" lon="6.71387"><ele>582.4</ele><time>2018-05-25T16:13:57Z</time></trkpt>
<trkpt lat="46.5007" lon="6.7139"><ele>583.8</ele><time>2018-05-25T16:14:04Z</time></trkpt>
<trkpt lat="46.50075" lon="6.7139"><ele>584.8</ele><time>2018-05-25T16:14:09Z</time></trkpt>
<trkpt lat="46.50078" lon="6.71391"><ele>585.4</ele><time>2018-05-25T16:14:12Z</time></trkpt>
<trkpt lat="46.50082" lon="6.7139"><ele>586.4</ele><time>2018-05-25T16:14:16Z</time></trkpt>
<trkpt lat="46.50093" lon="6.71385"><ele>591.6</ele><time>2018-05-25T16:14:28Z</time></trkpt>
<trkpt lat="46.50096" lon="6.71384"><ele>592.8</ele><time>2018-05-25T16:14:31Z</time></trkpt>
<trkpt lat="46.50119" lon="6.71381"><ele>595.4</ele><time>2018-05-25T16:14:47Z</time></trkpt>
<trkpt lat="46.50109" lon="6.71398"><ele>602.2</ele><time>2018-05-25T16:14:55Z</time></trkpt>
<trkpt lat="46.50092" lon="6.7141"><ele>604.4</ele><time>2018-05-25T16:15:04Z</time></trkpt>
<trkpt lat="46.50075" lon="6.7142"><ele>603.6</ele><time>2018-05-25T16:15:10Z</time></trkpt>
<trkpt lat="46.50055" lon="6.71428"><ele>602.8</ele><time>2018-05-25T16:15:15Z</time></trkpt>
<trkpt lat="46.50037" lon="6.7144"><ele>603.4</ele><time>2018-05-25T16:15:21Z</time></trkpt>
<trkpt lat="46.50032" lon="6.71444"><ele>603.4</ele><time>2018-05-25T16:15:23Z</time></trkpt>
<trkpt lat="46.5002" lon="6.71453"><ele>603.4</ele><time>2018-05-25T16:15:27Z</time></trkpt>
<trkpt lat="46.50002" lon="6.71462"><ele>603</ele><time>2018-05-25T16:15:32Z</time></trkpt>
<trkpt lat="46.49983" lon="6.71471"><ele>603.4</ele><time>2018-05-25T16:15:38Z</time></trkpt>
<trkpt lat="46.49968" lon="6.71483"><ele>601.2</ele><time>2018-05-25T16:15:47Z</time></trkpt>
<trkpt lat="46.49955" lon="6.71497"><ele>601.8</ele><time>2018-05-25T16:15:54Z</time></trkpt>
<trkpt lat="46.49944" lon="6.71508"><ele>601.8</ele><time>2018-05-25T16:15:59Z</time></trkpt>
<trkpt lat="46.4993" lon="6.71527"><ele>601.2</ele><time>2018-05-25T16:16:06Z</time></trkpt>
<trkpt lat="46.49928" lon="6.71553"><ele>601.8</ele><time>2018-05-25T16:16:13Z</time></trkpt>
<trkpt lat="46.49922" lon="6.71575"><ele>599.2</ele><time>2018-05-25T16:16:18Z</time></trkpt>
<trkpt lat="46.49905" lon="6.716"><ele>596.2</ele><time>2018-05-25T16:16:22Z</time></trkpt>
<trkpt lat="46.49887" lon="6.71624"><ele>594</ele><time>2018-05-25T16:16:25Z</time></trkpt>
<trkpt lat="46.49867" lon="6.71644"><ele>594.6</ele><time>2018-05-25T16:16:28Z</time></trkpt>
<trkpt lat="46.49849" lon="6.71661"><ele>596.6</ele><time>2018-05-25T16:16:32Z</time></trkpt>
<trkpt lat="46.49835" lon="6.7168"><ele>599</ele><time>2018-05-25T16:16:39Z</time></trkpt>
<trkpt lat="46.49825" lon="6.71697"><ele>601</ele><time>2018-05-25T16:16:45Z</time></trkpt>
<trkpt lat="46.49823" lon="6.71699"><ele>601.4</ele><time>2018-05-25T16:16:46Z</time></trkpt>
<trkpt lat="46.49818" lon="6.71712"><ele>602.4</ele><time>2018-05-25T16:16:50Z</time></trkpt>
<trkpt lat="46.49808" lon="6.71737"><ele>604.8</ele><time>2018-05-25T16:16:59Z</time></trkpt>
<trkpt lat="46.49804" lon="6.71749"><ele>605.8</ele><time>2018-05-25T16:17:03Z</time></trkpt>
<trkpt lat="46.498" lon="6.71774"><ele>607.2</ele><time>2018-05-25T16:17:11Z</time></trkpt>
<trkpt lat="46.49801" lon="6.718"><ele>607.4</ele><time>2018-05-25T16:17:20Z</time></trkpt>
<trkpt lat="46.49811" lon="6.71819"><ele>609.4</ele><time>2018-05-25T16:17:30Z</time></trkpt>
<trkpt lat="46.49821" lon="6.71842"><ele>612.8</ele><time>2018-05-25T16:17:46Z</time></trkpt>
<trkpt lat="46.49823" lon="6.71849"><ele>613.8</ele><time>2018-05-25T16:17:51Z</time></trkpt>
<trkpt lat="46.49824" lon="6.71852"><ele>614.2</ele><time>2018-05-25T16:17:54Z</time></trkpt>
<trkpt lat="46.49827" lon="6.71862"><ele>616</ele><time>2018-05-25T16:18:01Z</time></trkpt>
<trkpt lat="46.49836" lon="6.7188"><ele>619.6</ele><time>2018-05-25T16:18:15Z</time></trkpt>
<trkpt lat="46.49849" lon="6.71899"><ele>623.6</ele><time>2018-05-25T16:18:32Z</time></trkpt>
<trkpt lat="46.49851" lon="6.71902"><ele>624.6</ele><time>2018-05-25T16:18:36Z</time></trkpt>
<trkpt lat="46.49859" lon="6.7191"><ele>627.6</ele><time>2018-05-25T16:18:49Z</time></trkpt>
<trkpt lat="46.49866" lon="6.71918"><ele>629</ele><time>2018-05-25T16:18:57Z</time></trkpt>
<trkpt lat="46.49875" lon="6.71926"><ele>630.8</ele><time>2018-05-25T16:19:08Z</time></trkpt>
<trkpt lat="46.49889" lon="6.71944"><ele>633.2</ele><time>2018-05-25T16:19:25Z</time></trkpt>
<trkpt lat="46.49894" lon="6.71952"><ele>634.4</ele><time>2018-05-25T16:19:33Z</time></trkpt>
<trkpt lat="46.49906" lon="6.71972"><ele>639.2</ele><time>2018-05-25T16:19:50Z</time></trkpt>
<trkpt lat="46.49922" lon="6.72"><ele>640.2</ele><time>2018-05-25T16:20:04Z</time></trkpt>
<trkpt lat="46.49935" lon="6.7202"><ele>641.2</ele><time>2018-05-25T16:20:13Z</time></trkpt>
<trkpt lat="46.49947" lon="6.72041"><ele>640.8</ele><time>2018-05-25T16:20:21Z</time></trkpt>
<trkpt lat="46.49958" lon="6.72062"><ele>640.4</ele><time>2018-05-25T16:20:30Z</time></trkpt>
<trkpt lat="46.49971" lon="6.72081"><ele>641.2</ele><time>2018-05-25T16:20:38Z</time></trkpt>
<trkpt lat="46.49975" lon="6.72089"><ele>643</ele><time>2018-05-25T16:20:44Z</time></trkpt>
<trkpt lat="46.49982" lon="6.72114"><ele>651</ele><time>2018-05-25T16:21:06Z</time></trkpt>
<trkpt lat="46.49991" lon="6.72138"><ele>654.2</ele><time>2018-05-25T16:21:19Z</time></trkpt>
<trkpt lat="46.49993" lon="6.72149"><ele>655.2</ele><time>2018-05-25T16:21:25Z</time></trkpt>
<trkpt lat="46.4999" lon="6.72176"><ele>657</ele><time>2018-05-25T16:21:40Z</time></trkpt>
<trkpt lat="46.49989" lon="6.72192"><ele>658.2</ele><time>2018-05-25T16:21:49Z</time></trkpt>
<trkpt lat="46.49988" lon="6.72199"><ele>658.8</ele><time>2018-05-25T16:21:54Z</time></trkpt>
<trkpt lat="46.49988" lon="6.72207"><ele>659.6</ele><time>2018-05-25T16:21:59Z</time></trkpt>
<trkpt lat="46.49985" lon="6.7223"><ele>661.8</ele><time>2018-05-25T16:22:13Z</time></trkpt>
<trkpt lat="46.49984" lon="6.72257"><ele>662.2</ele><time>2018-05-25T16:22:24Z</time></trkpt>
<trkpt lat="46.49984" lon="6.72284"><ele>662.2</ele><time>2018-05-25T16:22:31Z</time></trkpt>
<trkpt lat="46.49985" lon="6.72304"><ele>663.8</ele><time>2018-05-25T16:22:42Z</time></trkpt>
<trkpt lat="46.49987" lon="6.72309"><ele>664</ele><time>2018-05-25T16:22:47Z</time></trkpt>
<trkpt lat="46.49996" lon="6.72333"><ele>665.8</ele><time>2018-05-25T16:23:05Z</time></trkpt>
<trkpt lat="46.50005" lon="6.72357"><ele>668</ele><time>2018-05-25T16:23:18Z</time></trkpt>
<trkpt lat="46.50013" lon="6.72382"><ele>669.4</ele><time>2018-05-25T16:23:29Z</time></trkpt>
<trkpt lat="46.5002" lon="6.72408"><ele>672.2</ele><time>2018-05-25T16:23:41Z</time></trkpt>
<trkpt lat="46.50029" lon="6.72433"><ele>674.6</ele><time>2018-05-25T16:23:53Z</time></trkpt>
<trkpt lat="46.50039" lon="6.72467"><ele>676.2</ele><time>2018-05-25T16:24:07Z</time></trkpt>
<trkpt lat="46.50047" lon="6.7249"><ele>676.6</ele><time>2018-05-25T16:24:14Z</time></trkpt>
<trkpt lat="46.50058" lon="6.72515"><ele>676.8</ele><time>2018-05-25T16:24:20Z</time></trkpt>
<trkpt lat="46.5007" lon="6.72539"><ele>676.4</ele><time>2018-05-25T16:24:26Z</time></trkpt>
<trkpt lat="46.50083" lon="6.72561"><ele>677</ele><time>2018-05-25T16:24:33Z</time></trkpt>
<trkpt lat="46.50095" lon="6.72584"><ele>678.4</ele><time>2018-05-25T16:24:41Z</time></trkpt>
<trkpt lat="46.50105" lon="6.72608"><ele>679.2</ele><time>2018-05-25T16:24:49Z</time></trkpt>
<trkpt lat="46.50112" lon="6.72634"><ele>681.2</ele><time>2018-05-25T16:24:59Z</time></trkpt>
<trkpt lat="46.50118" lon="6.72659"><ele>683.4</ele><time>2018-05-25T16:25:13Z</time></trkpt>
<trkpt lat="46.50122" lon="6.72679"><ele>684.8</ele><time>2018-05-25T16:25:25Z</time></trkpt>
<trkpt lat="46.50123" lon="6.72688"><ele>685.8</ele><time>2018-05-25T16:25:31Z</time></trkpt>
<trkpt lat="46.50124" lon="6.72696"><ele>686.6</ele><time>2018-05-25T16:25:36Z</time></trkpt>
<trkpt lat="46.50129" lon="6.72721"><ele>689.4</ele><time>2018-05-25T16:25:56Z</time></trkpt>
<trkpt lat="46.5013" lon="6.72724"><ele>689.8</ele><time>2018-05-25T16:25:59Z</time></trkpt>
<trkpt lat="46.50131" lon="6.72728"><ele>690.4</ele><time>2018-05-25T16:26:02Z</time></trkpt>
<trkpt lat="46.50132" lon="6.7274"><ele>692.2</ele><time>2018-05-25T16:26:13Z</time></trkpt>
<trkpt lat="46.50138" lon="6.72766"><ele>697.8</ele><time>2018-05-25T16:26:35Z</time></trkpt>
<trkpt lat="46.50143" lon="6.72785"><ele>700</ele><time>2018-05-25T16:26:49Z</time></trkpt>
<trkpt lat="46.50158" lon="6.72801"><ele>701.2</ele><time>2018-05-25T16:27:01Z</time></trkpt>
<trkpt lat="46.50175" lon="6.72814"><ele>701.4</ele><time>2018-05-25T16:27:11Z</time></trkpt>
<trkpt lat="46.50185" lon="6.7282"><ele>701.8</ele><time>2018-05-25T16:27:16Z</time></trkpt>
<trkpt lat="46.50201" lon="6.7283"><ele>701</ele><time>2018-05-25T16:27:25Z</time></trkpt>
<trkpt lat="46.50219" lon="6.72845"><ele>701</ele><time>2018-05-25T16:27:34Z</time></trkpt>
<trkpt lat="46.50234" lon="6.72862"><ele>700.8</ele><time>2018-05-25T16:27:42Z</time></trkpt>
<trkpt lat="46.50245" lon="6.72877"><ele>702.6</ele><time>2018-05-25T16:27:49Z</time></trkpt>
<trkpt lat="46.5026" lon="6.72895"><ele>705</ele><time>2018-05-25T16:27:58Z</time></trkpt>
<trkpt lat="46.50279" lon="6.72919"><ele>708.4</ele><time>2018-05-25T16:28:08Z</time></trkpt>
<trkpt lat="46.50289" lon="6.72928"><ele>711</ele><time>2018-05-25T16:28:13Z</time></trkpt>
<trkpt lat="46.50308" lon="6.72941"><ele>712.4</ele><time>2018-05-25T16:28:20Z</time></trkpt>
<trkpt lat="46.50326" lon="6.72939"><ele>712</ele><time>2018-05-25T16:28:27Z</time></trkpt>
<trkpt lat="46.50347" lon="6.72932"><ele>711.6</ele><time>2018-05-25T16:28:33Z</time></trkpt>
<trkpt lat="46.50368" lon="6.72925"><ele>710.4</ele><time>2018-05-25T16:28:38Z</time></trkpt>
<trkpt lat="46.50387" lon="6.72921"><ele>710</ele><time>2018-05-25T16:28:42Z</time></trkpt>
<trkpt lat="46.50406" lon="6.72919"><ele>708.4</ele><time>2018-05-25T16:28:46Z</time></trkpt>
<trkpt lat="46.50415" lon="6.7292"><ele>707.8</ele><time>2018-05-25T16:28:48Z</time></trkpt>
<trkpt lat="46.50436" lon="6.72925"><ele>706.8</ele><time>2018-05-25T16:28:53Z</time></trkpt>
<trkpt lat="46.50462" lon="6.72934"><ele>709.8</ele><time>2018-05-25T16:29:03Z</time></trkpt>
<trkpt lat="46.50482" lon="6.72939"><ele>709.6</ele><time>2018-05-25T16:29:11Z</time></trkpt>
<trkpt lat="46.50501" lon="6.72944"><ele>709.6</ele><time>2018-05-25T16:29:19Z</time></trkpt>
<trkpt lat="46.50519" lon="6.72946"><ele>711</ele><time>2018-05-25T16:29:27Z</time></trkpt>
<trkpt lat="46.50537" lon="6.72954"><ele>713.8</ele><time>2018-05-25T16:29:36Z</time></trkpt>
<trkpt lat="46.50555" lon="6.72965"><ele>717.6</ele><time>2018-05-25T16:29:49Z</time></trkpt>
<trkpt lat="46.50564" lon="6.72975"><ele>720.2</ele><time>2018-05-25T16:29:59Z</time></trkpt>
<trkpt lat="46.50579" lon="6.7299"><ele>723.6</ele><time>2018-05-25T16:30:22Z</time></trkpt>
<trkpt lat="46.50584" lon="6.72996"><ele>725.4</ele><time>2018-05-25T16:30:30Z</time></trkpt>
<trkpt lat="46.50592" lon="6.73003"><ele>727.4</ele><time>2018-05-25T16:30:41Z</time></trkpt>
<trkpt lat="46.50607" lon="6.73017"><ele>732.2</ele><time>2018-05-25T16:31:05Z</time></trkpt>
<trkpt lat="46.50608" lon="6.73017"><ele>732.4</ele><time>2018-05-25T16:31:06Z</time></trkpt>
<trkpt lat="46.50613" lon="6.73021"><ele>733.6</ele><time>2018-05-25T16:31:12Z</time></trkpt>
<trkpt lat="46.50621" lon="6.73028"><ele>736</ele><time>2018-05-25T16:31:23Z</time></trkpt>
<trkpt lat="46.50634" lon="6.73042"><ele>739.6</ele><time>2018-05-25T16:31:42Z</time></trkpt>
<trkpt lat="46.50633" lon="6.73054"><ele>740.4</ele><time>2018-05-25T16:31:47Z</time></trkpt>
<trkpt lat="46.50628" lon="6.73088"><ele>738.6</ele><time>2018-05-25T16:31:53Z</time></trkpt>
<trkpt lat="46.50628" lon="6.73119"><ele>737.2</ele><time>2018-05-25T16:31:57Z</time></trkpt>
<trkpt lat="46.50629" lon="6.7315"><ele>736.8</ele><time>2018-05-25T16:32:01Z</time></trkpt>
<trkpt lat="46.5063" lon="6.7318"><ele>736.6</ele><time>2018-05-25T16:32:06Z</time></trkpt>
<trkpt lat="46.5063" lon="6.73194"><ele>736.4</ele><time>2018-05-25T16:32:09Z</time></trkpt>
<trkpt lat="46.50628" lon="6.73206"><ele>736</ele><time>2018-05-25T16:32:12Z</time></trkpt>
<trkpt lat="46.50625" lon="6.7322"><ele>735.6</ele><time>2018-05-25T16:32:16Z</time></trkpt>
<trkpt lat="46.50622" lon="6.73231"><ele>735</ele><time>2018-05-25T16:32:18Z</time></trkpt>
<trkpt lat="46.50616" lon="6.73248"><ele>734.4</ele><time>2018-05-25T16:32:21Z</time></trkpt>
<trkpt lat="46.50605" lon="6.73274"><ele>734</ele><time>2018-05-25T16:32:26Z</time></trkpt>
<trkpt lat="46.50598" lon="6.73293"><ele>733.8</ele><time>2018-05-25T16:32:30Z</time></trkpt>
<trkpt lat="46.50595" lon="6.73302"><ele>733.8</ele><time>2018-05-25T16:32:32Z</time></trkpt>
<trkpt lat="46.5059" lon="6.73331"><ele>733.6</ele><time>2018-05-25T16:32:38Z</time></trkpt>
<trkpt lat="46.50588" lon="6.73359"><ele>734.2</ele><time>2018-05-25T16:32:44Z</time></trkpt>
<trkpt lat="46.50589" lon="6.73396"><ele>737.6</ele><time>2018-05-25T16:32:56Z</time></trkpt>
<trkpt lat="46.50587" lon="6.73413"><ele>741.2</ele><time>2018-05-25T16:33:06Z</time></trkpt>
<trkpt lat="46.50586" lon="6.73416"><ele>742</ele><time>2018-05-25T16:33:08Z</time></trkpt>
<trkpt lat="46.50583" lon="6.73426"><ele>744</ele><time>2018-05-25T16:33:14Z</time></trkpt>
<trkpt lat="46.50576" lon="6.7345"><ele>749.4</ele><time>2018-05-25T16:33:29Z</time></trkpt>
<trkpt lat="46.50572" lon="6.73463"><ele>752.4</ele><time>2018-05-25T16:33:38Z</time></trkpt>
<trkpt lat="46.5057" lon="6.73468"><ele>753.2</ele><time>2018-05-25T16:33:41Z</time></trkpt>
<trkpt lat="46.50561" lon="6.73491"><ele>754.4</ele><time>2018-05-25T16:33:54Z</time></trkpt>
<trkpt lat="46.50551" lon="6.73519"><ele>757.8</ele><time>2018-05-25T16:34:09Z</time></trkpt>
<trkpt lat="46.50546" lon="6.73544"><ele>759.8</ele><time>2018-05-25T16:34:23Z</time></trkpt>
<trkpt lat="46.50547" lon="6.73555"><ele>760.6</ele><time>2018-05-25T16:34:30Z</time></trkpt>
<trkpt lat="46.50547" lon="6.73569"><ele>761</ele><time>2018-05-25T16:34:39Z</time></trkpt>
<trkpt lat="46.50548" lon="6.73585"><ele>761.2</ele><time>2018-05-25T16:34:45Z</time></trkpt>
<trkpt lat="46.50553" lon="6.73616"><ele>760.2</ele><time>2018-05-25T16:34:52Z</time></trkpt>
<trkpt lat="46.50555" lon="6.73646"><ele>760.4</ele><time>2018-05-25T16:34:57Z</time></trkpt>
<trkpt lat="46.50553" lon="6.73688"><ele>760.4</ele><time>2018-05-25T16:35:05Z</time></trkpt>
<trkpt lat="46.50552" lon="6.73702"><ele>759.2</ele><time>2018-05-25T16:35:08Z</time></trkpt>
<trkpt lat="46.50554" lon="6.73731"><ele>758</ele><time>2018-05-25T16:35:14Z</time></trkpt>
<trkpt lat="46.50557" lon="6.73747"><ele>757.8</ele><time>2018-05-25T16:35:17Z</time></trkpt>
<trkpt lat="46.50563" lon="6.73776"><ele>760</ele><time>2018-05-25T16:35:23Z</time></trkpt>
<trkpt lat="46.50557" lon="6.73801"><ele>761.8</ele><time>2018-05-25T16:35:32Z</time></trkpt>
<trkpt lat="46.50554" lon="6.73827"><ele>765.2</ele><time>2018-05-25T16:35:48Z</time></trkpt>
<trkpt lat="46.50548" lon="6.73853"><ele>770.4</ele><time>2018-05-25T16:36:04Z</time></trkpt>
<trkpt lat="46.50546" lon="6.73857"><ele>771.2</ele><time>2018-05-25T16:36:07Z</time></trkpt>
<trkpt lat="46.50541" lon="6.7387"><ele>774.8</ele><time>2018-05-25T16:36:17Z</time></trkpt>
<trkpt lat="46.50534" lon="6.73882"><ele>777</ele><time>2018-05-25T16:36:27Z</time></trkpt>
<trkpt lat="46.50529" lon="6.73888"><ele>777.8</ele><time>2018-05-25T16:36:31Z</time></trkpt>
<trkpt lat="46.50516" lon="6.73908"><ele>778.2</ele><time>2018-05-25T16:36:42Z</time></trkpt>
<trkpt lat="46.50502" lon="6.73925"><ele>778.2</ele><time>2018-05-25T16:36:53Z</time></trkpt>
<trkpt lat="46.505" lon="6.73928"><ele>778.4</ele><time>2018-05-25T16:36:55Z</time></trkpt>
<trkpt lat="46.50496" lon="6.73932"><ele>779.2</ele><time>2018-05-25T16:37:00Z</time></trkpt>
<trkpt lat="46.50495" lon="6.73933"><ele>779.2</ele><time>2018-05-25T16:37:01Z</time></trkpt>
<trkpt lat="46.50489" lon="6.73942"><ele>781.8</ele><time>2018-05-25T16:37:16Z</time></trkpt>
<trkpt lat="46.50473" lon="6.73957"><ele>782.4</ele><time>2018-05-25T16:37:43Z</time></trkpt>
<trkpt lat="46.50459" lon="6.73973"><ele>783.4</ele><time>2018-05-25T16:38:04Z</time></trkpt>
<trkpt lat="46.50445" lon="6.73985"><ele>785</ele><time>2018-05-25T16:38:25Z</time></trkpt>
<trkpt lat="46.50429" lon="6.73999"><ele>786.2</ele><time>2018-05-25T16:38:49Z</time></trkpt>
<trkpt lat="46.50421" lon="6.74022"><ele>789</ele><time>2018-05-25T16:39:07Z</time></trkpt>
<trkpt lat="46.50419" lon="6.74031"><ele>790.4</ele><time>2018-05-25T16:39:12Z</time></trkpt>
<trkpt lat="46.50415" lon="6.7406"><ele>793.2</ele><time>2018-05-25T16:39:26Z</time></trkpt>
<trkpt lat="46.50414" lon="6.74087"><ele>796</ele><time>2018-05-25T16:39:40Z</time></trkpt>
<trkpt lat="46.50421" lon="6.74111"><ele>798.8</ele><time>2018-05-25T16:39:54Z</time></trkpt>
<trkpt lat="46.5044" lon="6.74117"><ele>800.6</ele><time>2018-05-25T16:40:04Z</time></trkpt>
<trkpt lat="46.50458" lon="6.7412"><ele>803.4</ele><time>2018-05-25T16:40:14Z</time></trkpt>
<trkpt lat="46.50478" lon="6.74124"><ele>803.6</ele><time>2018-05-25T16:40:24Z</time></trkpt>
<trkpt lat="46.50497" lon="6.74128"><ele>803.6</ele><time>2018-05-25T16:40:34Z</time></trkpt>
<trkpt lat="46.505" lon="6.74128"><ele>803.8</ele><time>2018-05-25T16:40:36Z</time></trkpt>
<trkpt lat="46.50516" lon="6.74133"><ele>806.2</ele><time>2018-05-25T16:40:48Z</time></trkpt>
<trkpt lat="46.50523" lon="6.74137"><ele>807.2</ele><time>2018-05-25T16:40:56Z</time></trkpt>
<trkpt lat="46.50528" lon="6.74138"><ele>807.6</ele><time>2018-05-25T16:41:02Z</time></trkpt>
<trkpt lat="46.50538" lon="6.74136"><ele>808.6</ele><time>2018-05-25T16:41:12Z</time></trkpt>
<trkpt lat="46.50556" lon="6.74132"><ele>811.8</ele><time>2018-05-25T16:41:27Z</time></trkpt>
<trkpt lat="46.50557" lon="6.74132"><ele>812</ele><time>2018-05-25T16:41:28Z</time></trkpt>
<trkpt lat="46.50569" lon="6.7413"><ele>815.2</ele><time>2018-05-25T16:41:39Z</time></trkpt>
<trkpt lat="46.50588" lon="6.7413"><ele>821.6</ele><time>2018-05-25T16:41:57Z</time></trkpt>
<trkpt lat="46.50599" lon="6.7413"><ele>824</ele><time>2018-05-25T16:42:08Z</time></trkpt>
<trkpt lat="46.50605" lon="6.7413"><ele>826.2</ele><time>2018-05-25T16:42:14Z</time></trkpt>
<trkpt lat="46.50608" lon="6.74129"><ele>827.4</ele><time>2018-05-25T16:42:17Z</time></trkpt>
<trkpt lat="46.50612" lon="6.74132"><ele>828.6</ele><time>2018-05-25T16:42:21Z</time></trkpt>
<trkpt lat="46.50624" lon="6.74128"><ele>830.2</ele><time>2018-05-25T16:42:35Z</time></trkpt>
<trkpt lat="46.50629" lon="6.74127"><ele>831</ele><time>2018-05-25T16:42:41Z</time></trkpt>
<trkpt lat="46.50639" lon="6.74126"><ele>831.2</ele><time>2018-05-25T16:42:54Z</time></trkpt>
<trkpt lat="46.50656" lon="6.74125"><ele>835.2</ele><time>2018-05-25T16:43:17Z</time></trkpt>
<trkpt lat="46.50672" lon="6.74122"><ele>839.2</ele><time>2018-05-25T16:43:39Z</time></trkpt>
<trkpt lat="46.5069" lon="6.74119"><ele>842</ele><time>2018-05-25T16:44:03Z</time></trkpt>
<trkpt lat="46.50705" lon="6.74117"><ele>846</ele><time>2018-05-25T16:44:23Z</time></trkpt>
<trkpt lat="46.50723" lon="6.74119"><ele>850.2</ele><time>2018-05-25T16:44:44Z</time></trkpt>
<trkpt lat="46.50726" lon="6.7412"><ele>850.8</ele><time>2018-05-25T16:44:47Z</time></trkpt>
<trkpt lat="46.50731" lon="6.74123"><ele>851.8</ele><time>2018-05-25T16:44:53Z</time></trkpt>
<trkpt lat="46.50748" lon="6.74133"><ele>853.6</ele><time>2018-05-25T16:45:12Z</time></trkpt>
<trkpt lat="46.5075" lon="6.74131"><ele>853.6</ele><time>2018-05-25T16:45:15Z</time></trkpt>
<trkpt lat="46.50752" lon="6.74115"><ele>854.2</ele><time>2018-05-25T16:45:28Z</time></trkpt>
<trkpt lat="46.50752" lon="6.74114"><ele>854.2</ele><time>2018-05-25T16:45:29Z</time></trkpt>
<trkpt lat="46.50755" lon="6.74106"><ele>854.8</ele><time>2018-05-25T16:45:36Z</time></trkpt>
<trkpt lat="46.50755" lon="6.74096"><ele>855.6</ele><time>2018-05-25T16:45:44Z</time></trkpt>
<trkpt lat="46.50754" lon="6.74087"><ele>857</ele><time>2018-05-25T16:45:51Z</time></trkpt>
<trkpt lat="46.50754" lon="6.74085"><ele>857.2</ele><time>2018-05-25T16:45:53Z</time></trkpt>
<trkpt lat="46.50754" lon="6.74082"><ele>857.8</ele><time>2018-05-25T16:45:55Z</time></trkpt>
<trkpt lat="46.50754" lon="6.74075"><ele>859.2</ele><time>2018-05-25T16:46:01Z</time></trkpt>
<trkpt lat="46.50755" lon="6.74072"><ele>859.8</ele><time>2018-05-25T16:46:03Z</time></trkpt>
<trkpt lat="46.50756" lon="6.7407"><ele>860.4</ele><time>2018-05-25T16:46:05Z</time></trkpt>
<trkpt lat="46.50756" lon="6.74068"><ele>861</ele><time>2018-05-25T16:46:07Z</time></trkpt>
<trkpt lat="46.50756" lon="6.74063"><ele>862</ele><time>2018-05-25T16:46:10Z</time></trkpt>
<trkpt lat="46.5076" lon="6.74043"><ele>865.8</ele><time>2018-05-25T16:46:25Z</time></trkpt>
<trkpt lat="46.50763" lon="6.74041"><ele>866.6</ele><time>2018-05-25T16:46:29Z</time></trkpt>
<trkpt lat="46.50775" lon="6.74048"><ele>868.4</ele><time>2018-05-25T16:46:45Z</time></trkpt>
<trkpt lat="46.50777" lon="6.74049"><ele>868.8</ele><time>2018-05-25T16:46:49Z</time></trkpt>
<trkpt lat="46.5078" lon="6.74044"><ele>869.4</ele><time>2018-05-25T16:46:54Z</time></trkpt>
<trkpt lat="46.50781" lon="6.74049"><ele>869.4</ele><time>2018-05-25T16:46:58Z</time></trkpt>
<trkpt lat="46.50788" lon="6.74048"><ele>870.6</ele><time>2018-05-25T16:47:08Z</time></trkpt>
<trkpt lat="46.50806" lon="6.74052"><ele>874</ele><time>2018-05-25T16:47:30Z</time></trkpt>
<trkpt lat="46.50824" lon="6.74057"><ele>878.6</ele><time>2018-05-25T16:47:58Z</time></trkpt>
<trkpt lat="46.50836" lon="6.7406"><ele>880</ele><time>2018-05-25T16:48:11Z</time></trkpt>
<trkpt lat="46.50836" lon="6.74061"><ele>880.2</ele><time>2018-05-25T16:48:12Z</time></trkpt>
<trkpt lat="46.50851" lon="6.74077"><ele>883.2</ele><time>2018-05-25T16:48:31Z</time></trkpt>
<trkpt lat="46.50861" lon="6.74087"><ele>885.4</ele><time>2018-05-25T16:48:44Z</time></trkpt>
<trkpt lat="46.50866" lon="6.74091"><ele>886.8</ele><time>2018-05-25T16:48:51Z</time></trkpt>
<trkpt lat="46.5087" lon="6.74093"><ele>887.6</ele><time>2018-05-25T16:48:55Z</time></trkpt>
<trkpt lat="46.50887" lon="6.74096"><ele>892.2</ele><time>2018-05-25T16:49:18Z</time></trkpt>
<trkpt lat="46.50899" lon="6.74096"><ele>893.6</ele><time>2018-05-25T16:49:32Z</time></trkpt>
<trkpt lat="46.50904" lon="6.74096"><ele>894.6</ele><time>2018-05-25T16:49:37Z</time></trkpt>
<trkpt lat="46.50904" lon="6.74095"><ele>894.6</ele><time>2018-05-25T16:49:38Z</time></trkpt>
<trkpt lat="46.50908" lon="6.74094"><ele>895.4</ele><time>2018-05-25T16:49:43Z</time></trkpt>
<trkpt lat="46.50926" lon="6.74092"><ele>898.8</ele><time>2018-05-25T16:50:05Z</time></trkpt>
<trkpt lat="46.50947" lon="6.7409"><ele>904</ele><time>2018-05-25T16:50:32Z</time></trkpt>
<trkpt lat="46.50966" lon="6.7409"><ele>908.2</ele><time>2018-05-25T16:50:55Z</time></trkpt>
<trkpt lat="46.50987" lon="6.74091"><ele>911.4</ele><time>2018-05-25T16:51:23Z</time></trkpt>
<trkpt lat="46.50996" lon="6.7409"><ele>912.4</ele><time>2018-05-25T16:51:30Z</time></trkpt>
<trkpt lat="46.51004" lon="6.74089"><ele>913.4</ele><time>2018-05-25T16:51:35Z</time></trkpt>
<trkpt lat="46.51006" lon="6.74089"><ele>913.4</ele><time>2018-05-25T16:51:37Z</time></trkpt>
<trkpt lat="46.51026" lon="6.74094"><ele>914.4</ele><time>2018-05-25T16:51:49Z</time></trkpt>
<trkpt lat="46.51037" lon="6.74095"><ele>915.6</ele><time>2018-05-25T16:51:56Z</time></trkpt>
<trkpt lat="46.51041" lon="6.74095"><ele>916.6</ele><time>2018-05-25T16:52:00Z</time></trkpt>
<trkpt lat="46.51042" lon="6.741"><ele>917.8</ele><time>2018-05-25T16:52:04Z</time></trkpt>
<trkpt lat="46.51046" lon="6.74107"><ele>918.4</ele><time>2018-05-25T16:52:09Z</time></trkpt>
<trkpt lat="46.51048" lon="6.74106"><ele>918.8</ele><time>2018-05-25T16:52:11Z</time></trkpt>
<trkpt lat="46.51049" lon="6.74101"><ele>918.6</ele><time>2018-05-25T16:52:14Z</time></trkpt>
<trkpt lat="46.51046" lon="6.74098"><ele>917.8</ele><time>2018-05-25T16:52:18Z</time></trkpt>
<trkpt lat="46.51046" lon="6.74097"><ele>917</ele><time>2018-05-25T16:52:23Z</time></trkpt>
<trkpt lat="46.51045" lon="6.74097"><ele>917.4</ele><time>2018-05-25T16:52:33Z</time></trkpt>
<trkpt lat="46.51045" lon="6.74097"><ele>917.8</ele><time>2018-05-25T16:52:51Z</time></trkpt>
<trkpt lat="46.51045" lon="6.74099"><ele>917.2</ele><time>2018-05-25T16:53:03Z</time></trkpt>
<trkpt lat="46.51045" lon="6.74099"><ele>916</ele><time>2018-05-25T16:53:33Z</time></trkpt>
<trkpt lat="46.51045" lon="6.74098"><ele>916.2</ele><time>2018-05-25T16:53:34Z</time></trkpt>
<trkpt lat="46.51045" lon="6.74099"><ele>916.2</ele><time>2018-05-25T16:53:35Z</time></trkpt>
<trkpt lat="46.51045" lon="6.74098"><ele>916.4</ele><time>2018-05-25T16:53:36Z</time></trkpt>
<trkpt lat="46.51044" lon="6.74098"><ele>918.8</ele><time>2018-05-25T16:54:10Z</time></trkpt>
<trkpt lat="46.51044" lon="6.74098"><ele>918.8</ele><time>2018-05-25T16:54:26Z</time></trkpt>
<trkpt lat="46.51043" lon="6.74098"><ele>919</ele><time>2018-05-25T16:54:34Z</time></trkpt>
<trkpt lat="46.51044" lon="6.74099"><ele>918.8</ele><time>2018-05-25T16:54:54Z</time></trkpt>
<trkpt lat="46.51044" lon="6.74099"><ele>918.8</ele><time>2018-05-25T16:54:58Z</time></trkpt>
<trkpt lat="46.51044" lon="6.74099"><ele>918.8</ele><time>2018-05-25T16:55:09Z</time></trkpt>
<trkpt lat="46.51044" lon="6.741"><ele>918.8</ele><time>2018-05-25T16:55:18Z</time></trkpt>
<trkpt lat="46.51044" lon="6.741"><ele>918.8</ele><time>2018-05-25T16:55:19Z</time></trkpt>
<trkpt lat="46.51044" lon="6.741"><ele>918.8</ele><time>2018-05-25T16:55:20Z</time></trkpt>
<trkpt lat="46.51044" lon="6.741"><ele>918.8</ele><time>2018-05-25T16:55:22Z</time></trkpt>
<trkpt lat="46.51044" lon="6.741"><ele>918.8</ele><time>2018-05-25T16:55:24Z</time></trkpt>
<trkpt lat="46.51044" lon="6.741"><ele>918.6</ele><time>2018-05-25T16:55:28Z</time></trkpt>
<trkpt lat="46.51044" lon="6.741"><ele>918.6</ele><time>2018-05-25T16:55:34Z</time></trkpt>
<trkpt lat="46.51044" lon="6.741"><ele>918.8</ele><time>2018-05-25T16:55:40Z</time></trkpt>
<trkpt lat="46.51044" lon="6.74099"><ele>918.8</ele><time>2018-05-25T16:55:44Z</time></trkpt>
<trkpt lat="46.51043" lon="6.74098"><ele>918.2</ele><time>2018-05-25T16:55:56Z</time></trkpt>
<trkpt lat="46.51043" lon="6.74098"><ele>918.2</ele><time>2018-05-25T16:56:07Z</time></trkpt>
<trkpt lat="46.51043" lon="6.74098"><ele>917.6</ele><time>2018-05-25T16:56:25Z</time></trkpt>
<trkpt lat="46.51043" lon="6.74097"><ele>918.6</ele><time>2018-05-25T16:57:22Z</time></trkpt>
<trkpt lat="46.51043" lon="6.74098"><ele>919.2</ele><time>2018-05-25T16:57:36Z</time></trkpt>
<trkpt lat="46.51043" lon="6.74097"><ele>919.4</ele><time>2018-05-25T16:57:41Z</time></trkpt>
<trkpt lat="46.51043" lon="6.74097"><ele>919.4</ele><time>2018-05-25T16:57:44Z</time></trkpt>
<trkpt lat="46.51036" lon="6.74096"><ele>919.2</ele><time>2018-05-25T16:57:57Z</time></trkpt>
<trkpt lat="46.51032" lon="6.74097"><ele>919.2</ele><time>2018-05-25T16:57:59Z</time></trkpt>
<trkpt lat="46.51033" lon="6.74088"><ele>918.8</ele><time>2018-05-25T16:58:02Z</time></trkpt>
<trkpt lat="46.51035" lon="6.74089"><ele>918.8</ele><time>2018-05-25T16:58:03Z</time></trkpt>
<trkpt lat="46.51037" lon="6.74089"><ele>918.6</ele><time>2018-05-25T16:58:04Z</time></trkpt>
<trkpt lat="46.51042" lon="6.74087"><ele>918.4</ele><time>2018-05-25T16:58:08Z</time></trkpt>
<trkpt lat="46.51054" lon="6.74087"><ele>918</ele><time>2018-05-25T16:58:16Z</time></trkpt>
<trkpt lat="46.51056" lon="6.74086"><ele>918.8</ele><time>2018-05-25T16:58:26Z</time></trkpt>
<trkpt lat="46.51057" lon="6.74083"><ele>918.8</ele><time>2018-05-25T16:58:31Z</time></trkpt>
<trkpt lat="46.51058" lon="6.74079"><ele>918.8</ele><time>2018-05-25T16:58:34Z</time></trkpt>
<trkpt lat="46.51067" lon="6.74073"><ele>919.2</ele><time>2018-05-25T16:58:44Z</time></trkpt>
<trkpt lat="46.5107" lon="6.74073"><ele>919.8</ele><time>2018-05-25T16:58:47Z</time></trkpt>
<trkpt lat="46.51072" lon="6.74073"><ele>920.4</ele><time>2018-05-25T16:58:49Z</time></trkpt>
<trkpt lat="46.51074" lon="6.74072"><ele>921.2</ele><time>2018-05-25T16:58:52Z</time></trkpt>
<trkpt lat="46.51078" lon="6.7407"><ele>922.4</ele><time>2018-05-25T16:58:56Z</time></trkpt>
<trkpt lat="46.5108" lon="6.7407"><ele>923.2</ele><time>2018-05-25T16:58:58Z</time></trkpt>
<trkpt lat="46.51081" lon="6.7407"><ele>923.8</ele><time>2018-05-25T16:58:59Z</time></trkpt>
<trkpt lat="46.51084" lon="6.74063"><ele>924.6</ele><time>2018-05-25T16:59:08Z</time></trkpt>
<trkpt lat="46.51084" lon="6.7406"><ele>925</ele><time>2018-05-25T16:59:11Z</time></trkpt>
<trkpt lat="46.51085" lon="6.7406"><ele>925</ele><time>2018-05-25T16:59:12Z</time></trkpt>
<trkpt lat="46.51086" lon="6.74059"><ele>925.2</ele><time>2018-05-25T16:59:13Z</time></trkpt>
<trkpt lat="46.51076" lon="6.74042"><ele>927</ele><time>2018-05-25T16:59:23Z</time></trkpt>
<trkpt lat="46.51068" lon="6.74037"><ele>928.2</ele><time>2018-05-25T16:59:28Z</time></trkpt>
<trkpt lat="46.51063" lon="6.74026"><ele>929</ele><time>2018-05-25T16:59:33Z</time></trkpt>
<trkpt lat="46.51049" lon="6.74003"><ele>928</ele><time>2018-05-25T16:59:41Z</time></trkpt>
<trkpt lat="46.51041" lon="6.73985"><ele>922.8</ele><time>2018-05-25T16:59:48Z</time></trkpt>
<trkpt lat="46.51034" lon="6.73975"><ele>921</ele><time>2018-05-25T16:59:52Z</time></trkpt>
<trkpt lat="46.51027" lon="6.73967"><ele>918.2</ele><time>2018-05-25T16:59:57Z</time></trkpt>
<trkpt lat="46.51026" lon="6.73965"><ele>917.2</ele><time>2018-05-25T16:59:59Z</time></trkpt>
<trkpt lat="46.51016" lon="6.73952"><ele>912.4</ele><time>2018-05-25T17:00:08Z</time></trkpt>
<trkpt lat="46.51012" lon="6.73941"><ele>910.4</ele><time>2018-05-25T17:00:12Z</time></trkpt>
<trkpt lat="46.51009" lon="6.73933"><ele>909.2</ele><time>2018-05-25T17:00:14Z</time></trkpt>
<trkpt lat="46.50998" lon="6.7391"><ele>905</ele><time>2018-05-25T17:00:19Z</time></trkpt>
<trkpt lat="46.50987" lon="6.73884"><ele>899.8</ele><time>2018-05-25T17:00:25Z</time></trkpt>
<trkpt lat="46.50972" lon="6.73863"><ele>896.4</ele><time>2018-05-25T17:00:31Z</time></trkpt>
<trkpt lat="46.50966" lon="6.7385"><ele>893.6</ele><time>2018-05-25T17:00:35Z</time></trkpt>
<trkpt lat="46.50966" lon="6.73846"><ele>892.6</ele><time>2018-05-25T17:00:37Z</time></trkpt>
<trkpt lat="46.50966" lon="6.73843"><ele>890.8</ele><time>2018-05-25T17:00:40Z</time></trkpt>
<trkpt lat="46.50965" lon="6.73842"><ele>891</ele><time>2018-05-25T17:00:48Z</time></trkpt>
<trkpt lat="46.50962" lon="6.73814"><ele>887.2</ele><time>2018-05-25T17:01:13Z</time></trkpt>
<trkpt lat="46.50955" lon="6.73797"><ele>885.4</ele><time>2018-05-25T17:01:26Z</time></trkpt>
<trkpt lat="46.50955" lon="6.73778"><ele>882.4</ele><time>2018-05-25T17:01:40Z</time></trkpt>
<trkpt lat="46.50956" lon="6.73776"><ele>882.2</ele><time>2018-05-25T17:01:41Z</time></trkpt>
<trkpt lat="46.50957" lon="6.73774"><ele>881.8</ele><time>2018-05-25T17:01:44Z</time></trkpt>
<trkpt lat="46.50956" lon="6.73771"><ele>880.4</ele><time>2018-05-25T17:01:54Z</time></trkpt>
<trkpt lat="46.50948" lon="6.73742"><ele>875.8</ele><time>2018-05-25T17:02:10Z</time></trkpt>
<trkpt lat="46.50934" lon="6.73727"><ele>875.4</ele><time>2018-05-25T17:02:16Z</time></trkpt>
<trkpt lat="46.50932" lon="6.73723"><ele>875.4</ele><time>2018-05-25T17:02:18Z</time></trkpt>
<trkpt lat="46.50918" lon="6.73707"><ele>873</ele><time>2018-05-25T17:02:27Z</time></trkpt>
<trkpt lat="46.50916" lon="6.73703"><ele>872.8</ele><time>2018-05-25T17:02:29Z</time></trkpt>
<trkpt lat="46.50898" lon="6.73689"><ele>871</ele><time>2018-05-25T17:02:35Z</time></trkpt>
<trkpt lat="46.50882" lon="6.73671"><ele>868</ele><time>2018-05-25T17:02:41Z</time></trkpt>
<trkpt lat="46.50867" lon="6.73656"><ele>861.6</ele><time>2018-05-25T17:02:48Z</time></trkpt>
<trkpt lat="46.50851" lon="6.7364"><ele>856</ele><time>2018-05-25T17:02:53Z</time></trkpt>
<trkpt lat="46.50848" lon="6.73637"><ele>854.6</ele><time>2018-05-25T17:02:54Z</time></trkpt>
<trkpt lat="46.50829" lon="6.73619"><ele>845.4</ele><time>2018-05-25T17:03:00Z</time></trkpt>
<trkpt lat="46.5081" lon="6.73594"><ele>836.8</ele><time>2018-05-25T17:03:07Z</time></trkpt>
<trkpt lat="46.50794" lon="6.73582"><ele>830.6</ele><time>2018-05-25T17:03:12Z</time></trkpt>
<trkpt lat="46.50783" lon="6.73579"><ele>826.2</ele><time>2018-05-25T17:03:15Z</time></trkpt>
<trkpt lat="46.50774" lon="6.73575"><ele>820.8</ele><time>2018-05-25T17:03:20Z</time></trkpt>
<trkpt lat="46.50786" lon="6.73563"><ele>815.2</ele><time>2018-05-25T17:03:36Z</time></trkpt>
<trkpt lat="46.50789" lon="6.73563"><ele>813.6</ele><time>2018-05-25T17:03:39Z</time></trkpt>
<trkpt lat="46.50782" lon="6.73552"><ele>811.2</ele><time>2018-05-25T17:03:57Z</time></trkpt>
<trkpt lat="46.50777" lon="6.73546"><ele>810.6</ele><time>2018-05-25T17:04:07Z</time></trkpt>
<trkpt lat="46.50772" lon="6.7354"><ele>809.4</ele><time>2018-05-25T17:04:13Z</time></trkpt>
<trkpt lat="46.5077" lon="6.73538"><ele>809</ele><time>2018-05-25T17:04:17Z</time></trkpt>
<trkpt lat="46.50749" lon="6.7353"><ele>807.4</ele><time>2018-05-25T17:04:26Z</time></trkpt>
<trkpt lat="46.50738" lon="6.73525"><ele>805.8</ele><time>2018-05-25T17:04:29Z</time></trkpt>
<trkpt lat="46.50719" lon="6.7351"><ele>801.4</ele><time>2018-05-25T17:04:34Z</time></trkpt>
<trkpt lat="46.50704" lon="6.73496"><ele>798.8</ele><time>2018-05-25T17:04:39Z</time></trkpt>
<trkpt lat="46.50697" lon="6.73494"><ele>795.6</ele><time>2018-05-25T17:04:44Z</time></trkpt>
<trkpt lat="46.50694" lon="6.73493"><ele>793.6</ele><time>2018-05-25T17:05:00Z</time></trkpt>
<trkpt lat="46.50692" lon="6.73495"><ele>793.2</ele><time>2018-05-25T17:05:06Z</time></trkpt>
<trkpt lat="46.50692" lon="6.73494"><ele>793</ele><time>2018-05-25T17:05:08Z</time></trkpt>
<trkpt lat="46.50692" lon="6.73495"><ele>792.8</ele><time>2018-05-25T17:05:09Z</time></trkpt>
<trkpt lat="46.50685" lon="6.73489"><ele>791.8</ele><time>2018-05-25T17:05:14Z</time></trkpt>
<trkpt lat="46.50674" lon="6.73479"><ele>789.2</ele><time>2018-05-25T17:05:22Z</time></trkpt>
<trkpt lat="46.50675" lon="6.73474"><ele>782.2</ele><time>2018-05-25T17:05:43Z</time></trkpt>
<trkpt lat="46.50694" lon="6.73468"><ele>778</ele><time>2018-05-25T17:05:52Z</time></trkpt>
<trkpt lat="46.50713" lon="6.73458"><ele>771.4</ele><time>2018-05-25T17:06:02Z</time></trkpt>
<trkpt lat="46.50718" lon="6.73454"><ele>770.8</ele><time>2018-05-25T17:06:04Z</time></trkpt>
<trkpt lat="46.50721" lon="6.73453"><ele>770.6</ele><time>2018-05-25T17:06:05Z</time></trkpt>
<trkpt lat="46.50724" lon="6.73451"><ele>769.2</ele><time>2018-05-25T17:06:07Z</time></trkpt>
<trkpt lat="46.50709" lon="6.73439"><ele>768</ele><time>2018-05-25T17:06:14Z</time></trkpt>
<trkpt lat="46.5069" lon="6.73429"><ele>763.2</ele><time>2018-05-25T17:06:22Z</time></trkpt>
<trkpt lat="46.50672" lon="6.7342"><ele>759</ele><time>2018-05-25T17:06:30Z</time></trkpt>
<trkpt lat="46.50661" lon="6.7341"><ele>756.2</ele><time>2018-05-25T17:06:37Z</time></trkpt>
<trkpt lat="46.5066" lon="6.73408"><ele>755.8</ele><time>2018-05-25T17:06:43Z</time></trkpt>
<trkpt lat="46.5066" lon="6.73408"><ele>755.8</ele><time>2018-05-25T17:06:44Z</time></trkpt>
<trkpt lat="46.50659" lon="6.73408"><ele>755.6</ele><time>2018-05-25T17:06:45Z</time></trkpt>
<trkpt lat="46.50658" lon="6.73406"><ele>755.4</ele><time>2018-05-25T17:06:46Z</time></trkpt>
<trkpt lat="46.50638" lon="6.73395"><ele>753.8</ele><time>2018-05-25T17:06:52Z</time></trkpt>
<trkpt lat="46.50619" lon="6.73392"><ele>751.6</ele><time>2018-05-25T17:06:56Z</time></trkpt>
<trkpt lat="46.5061" lon="6.73392"><ele>749.4</ele><time>2018-05-25T17:06:58Z</time></trkpt>
<trkpt lat="46.50604" lon="6.73392"><ele>748</ele><time>2018-05-25T17:07:00Z</time></trkpt>
<trkpt lat="46.506" lon="6.73392"><ele>746.2</ele><time>2018-05-25T17:07:03Z</time></trkpt>
<trkpt lat="46.50599" lon="6.73385"><ele>745.4</ele><time>2018-05-25T17:07:11Z</time></trkpt>
<trkpt lat="46.50591" lon="6.73386"><ele>743.6</ele><time>2018-05-25T17:07:36Z</time></trkpt>
<trkpt lat="46.50591" lon="6.73355"><ele>742.2</ele><time>2018-05-25T17:07:40Z</time></trkpt>
<trkpt lat="46.50592" lon="6.73328"><ele>741</ele><time>2018-05-25T17:07:43Z</time></trkpt>
<trkpt lat="46.50597" lon="6.73296"><ele>740.2</ele><time>2018-05-25T17:07:47Z</time></trkpt>
<trkpt lat="46.50606" lon="6.73271"><ele>739.8</ele><time>2018-05-25T17:07:51Z</time></trkpt>
<trkpt lat="46.50616" lon="6.73248"><ele>740.2</ele><time>2018-05-25T17:07:56Z</time></trkpt>
<trkpt lat="46.50621" lon="6.73236"><ele>738.8</ele><time>2018-05-25T17:07:59Z</time></trkpt>
<trkpt lat="46.50606" lon="6.73242"><ele>735.4</ele><time>2018-05-25T17:08:05Z</time></trkpt>
<trkpt lat="46.50601" lon="6.73247"><ele>734.6</ele><time>2018-05-25T17:08:06Z</time></trkpt>
<trkpt lat="46.50584" lon="6.73267"><ele>732</ele><time>2018-05-25T17:08:09Z</time></trkpt>
<trkpt lat="46.50566" lon="6.73291"><ele>728.4</ele><time>2018-05-25T17:08:12Z</time></trkpt>
<trkpt lat="46.50555" lon="6.73311"><ele>726.6</ele><time>2018-05-25T17:08:14Z</time></trkpt>
<trkpt lat="46.50542" lon="6.73341"><ele>724.4</ele><time>2018-05-25T17:08:17Z</time></trkpt>
<trkpt lat="46.50539" lon="6.73348"><ele>723.8</ele><time>2018-05-25T17:08:18Z</time></trkpt>
<trkpt lat="46.50525" lon="6.73346"><ele>722.6</ele><time>2018-05-25T17:08:21Z</time></trkpt>
<trkpt lat="46.50516" lon="6.73332"><ele>720.8</ele><time>2018-05-25T17:08:23Z</time></trkpt>
<trkpt lat="46.505" lon="6.73305"><ele>717.4</ele><time>2018-05-25T17:08:26Z</time></trkpt>
<trkpt lat="46.50488" lon="6.73284"><ele>715.2</ele><time>2018-05-25T17:08:28Z</time></trkpt>
<trkpt lat="46.50475" lon="6.73261"><ele>713.4</ele><time>2018-05-25T17:08:30Z</time></trkpt>
<trkpt lat="46.50462" lon="6.73239"><ele>711.6</ele><time>2018-05-25T17:08:32Z</time></trkpt>
<trkpt lat="46.50449" lon="6.73216"><ele>709.4</ele><time>2018-05-25T17:08:34Z</time></trkpt>
<trkpt lat="46.50436" lon="6.73192"><ele>706.8</ele><time>2018-05-25T17:08:36Z</time></trkpt>
<trkpt lat="46.50422" lon="6.73168"><ele>705.2</ele><time>2018-05-25T17:08:38Z</time></trkpt>
<trkpt lat="46.50409" lon="6.73144"><ele>703.8</ele><time>2018-05-25T17:08:40Z</time></trkpt>
<trkpt lat="46.50395" lon="6.73121"><ele>703.6</ele><time>2018-05-25T17:08:42Z</time></trkpt>
<trkpt lat="46.50383" lon="6.731"><ele>703.4</ele><time>2018-05-25T17:08:44Z</time></trkpt>
<trkpt lat="46.50371" lon="6.7308"><ele>703</ele><time>2018-05-25T17:08:46Z</time></trkpt>
<trkpt lat="46.50355" lon="6.73051"><ele>702.8</ele><time>2018-05-25T17:08:49Z</time></trkpt>
<trkpt lat="46.50341" lon="6.73026"><ele>702.6</ele><time>2018-05-25T17:08:52Z</time></trkpt>
<trkpt lat="46.50328" lon="6.73003"><ele>704.2</ele><time>2018-05-25T17:08:55Z</time></trkpt>
<trkpt lat="46.50318" lon="6.72976"><ele>707.8</ele><time>2018-05-25T17:09:00Z</time></trkpt>
<trkpt lat="46.50314" lon="6.72954"><ele>711</ele><time>2018-05-25T17:09:05Z</time></trkpt>
<trkpt lat="46.50309" lon="6.72947"><ele>713.4</ele><time>2018-05-25T17:09:08Z</time></trkpt>
<trkpt lat="46.50303" lon="6.72942"><ele>714.4</ele><time>2018-05-25T17:09:10Z</time></trkpt>
<trkpt lat="46.50287" lon="6.72926"><ele>716.4</ele><time>2018-05-25T17:09:15Z</time></trkpt>
<trkpt lat="46.50277" lon="6.72915"><ele>718.6</ele><time>2018-05-25T17:09:18Z</time></trkpt>
<trkpt lat="46.50262" lon="6.72897"><ele>721.4</ele><time>2018-05-25T17:09:22Z</time></trkpt>
<trkpt lat="46.50246" lon="6.72875"><ele>723.6</ele><time>2018-05-25T17:09:26Z</time></trkpt>
<trkpt lat="46.50241" lon="6.72869"><ele>724</ele><time>2018-05-25T17:09:27Z</time></trkpt>
<trkpt lat="46.50223" lon="6.72851"><ele>724.6</ele><time>2018-05-25T17:09:30Z</time></trkpt>
<trkpt lat="46.50205" lon="6.72835"><ele>724.4</ele><time>2018-05-25T17:09:33Z</time></trkpt>
<trkpt lat="46.50186" lon="6.7282"><ele>724.2</ele><time>2018-05-25T17:09:36Z</time></trkpt>
<trkpt lat="46.50166" lon="6.72808"><ele>723.4</ele><time>2018-05-25T17:09:39Z</time></trkpt>
<trkpt lat="46.5015" lon="6.72795"><ele>720.6</ele><time>2018-05-25T17:09:42Z</time></trkpt>
<trkpt lat="46.50137" lon="6.72775"><ele>719.6</ele><time>2018-05-25T17:09:45Z</time></trkpt>
<trkpt lat="46.50128" lon="6.72745"><ele>713.8</ele><time>2018-05-25T17:09:48Z</time></trkpt>
<trkpt lat="46.50123" lon="6.72705"><ele>705.4</ele><time>2018-05-25T17:09:51Z</time></trkpt>
<trkpt lat="46.50121" lon="6.7269"><ele>702.4</ele><time>2018-05-25T17:09:52Z</time></trkpt>
<trkpt lat="46.50114" lon="6.7266"><ele>699.6</ele><time>2018-05-25T17:09:54Z</time></trkpt>
<trkpt lat="46.50107" lon="6.7263"><ele>697.4</ele><time>2018-05-25T17:09:56Z</time></trkpt>
<trkpt lat="46.501" lon="6.72601"><ele>695.2</ele><time>2018-05-25T17:09:58Z</time></trkpt>
<trkpt lat="46.50096" lon="6.72588"><ele>694.4</ele><time>2018-05-25T17:09:59Z</time></trkpt>
<trkpt lat="46.50082" lon="6.72562"><ele>692.6</ele><time>2018-05-25T17:10:02Z</time></trkpt>
<trkpt lat="46.50067" lon="6.72536"><ele>691</ele><time>2018-05-25T17:10:06Z</time></trkpt>
<trkpt lat="46.50055" lon="6.7251"><ele>690.4</ele><time>2018-05-25T17:10:10Z</time></trkpt>
<trkpt lat="46.50045" lon="6.72485"><ele>690</ele><time>2018-05-25T17:10:14Z</time></trkpt>
<trkpt lat="46.50035" lon="6.72459"><ele>686.2</ele><time>2018-05-25T17:10:19Z</time></trkpt>
<trkpt lat="46.50027" lon="6.72431"><ele>683</ele><time>2018-05-25T17:10:24Z</time></trkpt>
<trkpt lat="46.50019" lon="6.72406"><ele>681.8</ele><time>2018-05-25T17:10:27Z</time></trkpt>
<trkpt lat="46.5001" lon="6.72377"><ele>680.2</ele><time>2018-05-25T17:10:30Z</time></trkpt>
<trkpt lat="46.5" lon="6.72346"><ele>676.8</ele><time>2018-05-25T17:10:33Z</time></trkpt>
<trkpt lat="46.49997" lon="6.72336"><ele>674.6</ele><time>2018-05-25T17:10:34Z</time></trkpt>
<trkpt lat="46.49988" lon="6.72308"><ele>671.6</ele><time>2018-05-25T17:10:37Z</time></trkpt>
<trkpt lat="46.49983" lon="6.72286"><ele>669</ele><time>2018-05-25T17:10:39Z</time></trkpt>
<trkpt lat="46.49982" lon="6.72259"><ele>667.8</ele><time>2018-05-25T17:10:41Z</time></trkpt>
<trkpt lat="46.49985" lon="6.72235"><ele>668.2</ele><time>2018-05-25T17:10:43Z</time></trkpt>
<trkpt lat="46.49989" lon="6.722"><ele>664</ele><time>2018-05-25T17:10:46Z</time></trkpt>
<trkpt lat="46.49992" lon="6.72162"><ele>657.4</ele><time>2018-05-25T17:10:49Z</time></trkpt>
<trkpt lat="46.49991" lon="6.72126"><ele>652.4</ele><time>2018-05-25T17:10:52Z</time></trkpt>
<trkpt lat="46.49989" lon="6.72114"><ele>651</ele><time>2018-05-25T17:10:53Z</time></trkpt>
<trkpt lat="46.49975" lon="6.72082"><ele>647</ele><time>2018-05-25T17:10:56Z</time></trkpt>
<trkpt lat="46.49971" lon="6.72075"><ele>645.8</ele><time>2018-05-25T17:10:57Z</time></trkpt>
<trkpt lat="46.49965" lon="6.72064"><ele>644.6</ele><time>2018-05-25T17:10:59Z</time></trkpt>
<trkpt lat="46.49962" lon="6.72053"><ele>644.2</ele><time>2018-05-25T17:11:03Z</time></trkpt>
<trkpt lat="46.49952" lon="6.7204"><ele>643.6</ele><time>2018-05-25T17:11:07Z</time></trkpt>
<trkpt lat="46.49938" lon="6.72018"><ele>641.8</ele><time>2018-05-25T17:11:12Z</time></trkpt>
<trkpt lat="46.49926" lon="6.71997"><ele>641</ele><time>2018-05-25T17:11:16Z</time></trkpt>
<trkpt lat="46.49912" lon="6.71972"><ele>639.2</ele><time>2018-05-25T17:11:20Z</time></trkpt>
<trkpt lat="46.49903" lon="6.71957"><ele>637.4</ele><time>2018-05-25T17:11:22Z</time></trkpt>
<trkpt lat="46.49885" lon="6.71933"><ele>633.6</ele><time>2018-05-25T17:11:25Z</time></trkpt>
<trkpt lat="46.49871" lon="6.71917"><ele>630.6</ele><time>2018-05-25T17:11:27Z</time></trkpt>
<trkpt lat="46.49855" lon="6.71902"><ele>627.4</ele><time>2018-05-25T17:11:29Z</time></trkpt>
<trkpt lat="46.49841" lon="6.71885"><ele>624</ele><time>2018-05-25T17:11:31Z</time></trkpt>
<trkpt lat="46.49829" lon="6.71864"><ele>620</ele><time>2018-05-25T17:11:33Z</time></trkpt>
<trkpt lat="46.4982" lon="6.7184"><ele>616.2</ele><time>2018-05-25T17:11:35Z</time></trkpt>
<trkpt lat="46.49811" lon="6.71817"><ele>613.2</ele><time>2018-05-25T17:11:37Z</time></trkpt>
<trkpt lat="46.49806" lon="6.71807"><ele>612.4</ele><time>2018-05-25T17:11:38Z</time></trkpt>
<trkpt lat="46.49797" lon="6.71788"><ele>610.6</ele><time>2018-05-25T17:11:40Z</time></trkpt>
<trkpt lat="46.49796" lon="6.71758"><ele>608.8</ele><time>2018-05-25T17:11:43Z</time></trkpt>
<trkpt lat="46.49805" lon="6.7173"><ele>606.6</ele><time>2018-05-25T17:11:46Z</time></trkpt>
<trkpt lat="46.49814" lon="6.71712"><ele>604.8</ele><time>2018-05-25T17:11:48Z</time></trkpt>
<trkpt lat="46.49819" lon="6.71704"><ele>603.6</ele><time>2018-05-25T17:11:49Z</time></trkpt>
<trkpt lat="46.49836" lon="6.71679"><ele>601.8</ele><time>2018-05-25T17:11:52Z</time></trkpt>
<trkpt lat="46.49856" lon="6.71656"><ele>598.6</ele><time>2018-05-25T17:11:55Z</time></trkpt>
<trkpt lat="46.49877" lon="6.71636"><ele>595.8</ele><time>2018-05-25T17:11:58Z</time></trkpt>
<trkpt lat="46.49889" lon="6.71623"><ele>596.8</ele><time>2018-05-25T17:12:00Z</time></trkpt>
<trkpt lat="46.49903" lon="6.71607"><ele>599.2</ele><time>2018-05-25T17:12:04Z</time></trkpt>
<trkpt lat="46.49909" lon="6.71599"><ele>600.2</ele><time>2018-05-25T17:12:07Z</time></trkpt>
<trkpt lat="46.49913" lon="6.71595"><ele>600.6</ele><time>2018-05-25T17:12:09Z</time></trkpt>
<trkpt lat="46.49928" lon="6.71569"><ele>603.6</ele><time>2018-05-25T17:12:19Z</time></trkpt>
<trkpt lat="46.4993" lon="6.71565"><ele>603.8</ele><time>2018-05-25T17:12:21Z</time></trkpt>
<trkpt lat="46.49929" lon="6.71552"><ele>604.6</ele><time>2018-05-25T17:12:25Z</time></trkpt>
<trkpt lat="46.49929" lon="6.71547"><ele>604.6</ele><time>2018-05-25T17:12:26Z</time></trkpt>
<trkpt lat="46.49934" lon="6.7152"><ele>603.4</ele><time>2018-05-25T17:12:31Z</time></trkpt>
<trkpt lat="46.49938" lon="6.71515"><ele>603.2</ele><time>2018-05-25T17:12:32Z</time></trkpt>
<trkpt lat="46.4995" lon="6.715"><ele>602.6</ele><time>2018-05-25T17:12:35Z</time></trkpt>
<trkpt lat="46.49963" lon="6.71486"><ele>601.8</ele><time>2018-05-25T17:12:38Z</time></trkpt>
<trkpt lat="46.49974" lon="6.71478"><ele>601</ele><time>2018-05-25T17:12:40Z</time></trkpt>
<trkpt lat="46.49987" lon="6.71471"><ele>599.8</ele><time>2018-05-25T17:12:42Z</time></trkpt>
<trkpt lat="46.50001" lon="6.71464"><ele>598.8</ele><time>2018-05-25T17:12:44Z</time></trkpt>
<trkpt lat="46.50022" lon="6.71453"><ele>598.2</ele><time>2018-05-25T17:12:47Z</time></trkpt>
<trkpt lat="46.5004" lon="6.71441"><ele>598.2</ele><time>2018-05-25T17:12:50Z</time></trkpt>
<trkpt lat="46.50057" lon="6.7143"><ele>597.8</ele><time>2018-05-25T17:12:53Z</time></trkpt>
<trkpt lat="46.50075" lon="6.71421"><ele>597.8</ele><time>2018-05-25T17:12:56Z</time></trkpt>
<trkpt lat="46.50097" lon="6.7141"><ele>599</ele><time>2018-05-25T17:13:00Z</time></trkpt>
<trkpt lat="46.50114" lon="6.71398"><ele>599.6</ele><time>2018-05-25T17:13:04Z</time></trkpt>
<trkpt lat="46.50124" lon="6.7139"><ele>599</ele><time>2018-05-25T17:13:07Z</time></trkpt>
<trkpt lat="46.50127" lon="6.71384"><ele>598.4</ele><time>2018-05-25T17:13:10Z</time></trkpt>
<trkpt lat="46.50116" lon="6.7138"><ele>597.4</ele><time>2018-05-25T17:13:15Z</time></trkpt>
<trkpt lat="46.50112" lon="6.71381"><ele>597</ele><time>2018-05-25T17:13:16Z</time></trkpt>
<trkpt lat="46.50098" lon="6.71386"><ele>595.6</ele><time>2018-05-25T17:13:19Z</time></trkpt>
<trkpt lat="46.50078" lon="6.71386"><ele>591.8</ele><time>2018-05-25T17:13:22Z</time></trkpt>
<trkpt lat="46.50053" lon="6.71384"><ele>588.8</ele><time>2018-05-25T17:13:25Z</time></trkpt>
<trkpt lat="46.50029" lon="6.71382"><ele>585.4</ele><time>2018-05-25T17:13:28Z</time></trkpt>
<trkpt lat="46.50011" lon="6.7138"><ele>582.6</ele><time>2018-05-25T17:13:31Z</time></trkpt>
<trkpt lat="46.5001" lon="6.71359"><ele>574.2</ele><time>2018-05-25T17:13:36Z</time></trkpt>
<trkpt lat="46.50022" lon="6.71348"><ele>571.8</ele><time>2018-05-25T17:13:38Z</time></trkpt>
<trkpt lat="46.50042" lon="6.71331"><ele>569.4</ele><time>2018-05-25T17:13:41Z</time></trkpt>
<trkpt lat="46.5006" lon="6.71313"><ele>569.2</ele><time>2018-05-25T17:13:44Z</time></trkpt>
<trkpt lat="46.50078" lon="6.71297"><ele>568.4</ele><time>2018-05-25T17:13:47Z</time></trkpt>
<trkpt lat="46.50098" lon="6.71285"><ele>566.6</ele><time>2018-05-25T17:13:50Z</time></trkpt>
<trkpt lat="46.50111" lon="6.71273"><ele>565.8</ele><time>2018-05-25T17:13:52Z</time></trkpt>
<trkpt lat="46.50128" lon="6.71253"><ele>565.8</ele><time>2018-05-25T17:13:55Z</time></trkpt>
<trkpt lat="46.50142" lon="6.71233"><ele>565.8</ele><time>2018-05-25T17:13:58Z</time></trkpt>
<trkpt lat="46.50154" lon="6.71211"><ele>566</ele><time>2018-05-25T17:14:01Z</time></trkpt>
<trkpt lat="46.50167" lon="6.71184"><ele>566.2</ele><time>2018-05-25T17:14:05Z</time></trkpt>
<trkpt lat="46.5017" lon="6.71178"><ele>566.2</ele><time>2018-05-25T17:14:06Z</time></trkpt>
<trkpt lat="46.50176" lon="6.71168"><ele>566.2</ele><time>2018-05-25T17:14:08Z</time></trkpt>
<trkpt lat="46.50182" lon="6.7114"><ele>564.4</ele><time>2018-05-25T17:14:12Z</time></trkpt>
<trkpt lat="46.50186" lon="6.71121"><ele>563.4</ele><time>2018-05-25T17:14:14Z</time></trkpt>
<trkpt lat="46.50184" lon="6.7109"><ele>563.6</ele><time>2018-05-25T17:14:17Z</time></trkpt>
<trkpt lat="46.50182" lon="6.71081"><ele>563.8</ele><time>2018-05-25T17:14:18Z</time></trkpt>
<trkpt lat="46.5018" lon="6.71072"><ele>564.2</ele><time>2018-05-25T17:14:19Z</time></trkpt>
<trkpt lat="46.5019" lon="6.7104"><ele>566.6</ele><time>2018-05-25T17:14:26Z</time></trkpt>
<trkpt lat="46.50192" lon="6.71038"><ele>567</ele><time>2018-05-25T17:14:27Z</time></trkpt>
<trkpt lat="46.50198" lon="6.71033"><ele>567.8</ele><time>2018-05-25T17:14:31Z</time></trkpt>
<trkpt lat="46.50197" lon="6.71034"><ele>568.2</ele><time>2018-05-25T17:14:40Z</time></trkpt>
<trkpt lat="46.50196" lon="6.71034"><ele>567.4</ele><time>2018-05-25T17:15:02Z</time></trkpt>
<trkpt lat="46.50195" lon="6.71034"><ele>567.2</ele><time>2018-05-25T17:15:08Z</time></trkpt>
<trkpt lat="46.50211" lon="6.7102"><ele>567.4</ele><time>2018-05-25T17:15:21Z</time></trkpt>
<trkpt lat="46.50229" lon="6.70995"><ele>565.8</ele><time>2018-05-25T17:15:25Z</time></trkpt>
<trkpt lat="46.50239" lon="6.70978"><ele>565.4</ele><time>2018-05-25T17:15:27Z</time></trkpt>
<trkpt lat="46.50243" lon="6.70947"><ele>565.8</ele><time>2018-05-25T17:15:30Z</time></trkpt>
<trkpt lat="46.50241" lon="6.7092"><ele>566.2</ele><time>2018-05-25T17:15:33Z</time></trkpt>
<trkpt lat="46.50234" lon="6.70893"><ele>566.8</ele><time>2018-05-25T17:15:37Z</time></trkpt>
<trkpt lat="46.50226" lon="6.7088"><ele>567.6</ele><time>2018-05-25T17:15:40Z</time></trkpt>
<trkpt lat="46.50224" lon="6.70876"><ele>567.8</ele><time>2018-05-25T17:15:41Z</time></trkpt>
<trkpt lat="46.50222" lon="6.70873"><ele>568.2</ele><time>2018-05-25T17:15:42Z</time></trkpt>
<trkpt lat="46.50219" lon="6.70868"><ele>568.6</ele><time>2018-05-25T17:15:44Z</time></trkpt>
<trkpt lat="46.50213" lon="6.70841"><ele>571.2</ele><time>2018-05-25T17:15:52Z</time></trkpt>
<trkpt lat="46.50213" lon="6.70837"><ele>571.2</ele><time>2018-05-25T17:15:53Z</time></trkpt>
<trkpt lat="46.50213" lon="6.70824"><ele>572</ele><time>2018-05-25T17:15:56Z</time></trkpt>
<trkpt lat="46.50215" lon="6.70793"><ele>569</ele><time>2018-05-25T17:16:01Z</time></trkpt>
<trkpt lat="46.50215" lon="6.70762"><ele>566.6</ele><time>2018-05-25T17:16:06Z</time></trkpt>
<trkpt lat="46.50218" lon="6.70735"><ele>561.4</ele><time>2018-05-25T17:16:10Z</time></trkpt>
<trkpt lat="46.50217" lon="6.7073"><ele>560.2</ele><time>2018-05-25T17:16:11Z</time></trkpt>
<trkpt lat="46.502" lon="6.70716"><ele>555.4</ele><time>2018-05-25T17:16:16Z</time></trkpt>
<trkpt lat="46.50184" lon="6.70702"><ele>551.6</ele><time>2018-05-25T17:16:20Z</time></trkpt>
<trkpt lat="46.50172" lon="6.70693"><ele>550.4</ele><time>2018-05-25T17:16:23Z</time></trkpt>
<trkpt lat="46.50169" lon="6.70689"><ele>549.6</ele><time>2018-05-25T17:16:24Z</time></trkpt>
<trkpt lat="46.50167" lon="6.70662"><ele>544.6</ele><time>2018-05-25T17:16:29Z</time></trkpt>
<trkpt lat="46.50174" lon="6.70647"><ele>540</ele><time>2018-05-25T17:16:31Z</time></trkpt>
<trkpt lat="46.50182" lon="6.70635"><ele>537</ele><time>2018-05-25T17:16:33Z</time></trkpt>
<trkpt lat="46.50194" lon="6.70615"><ele>532.4</ele><time>2018-05-25T17:16:36Z</time></trkpt>
<trkpt lat="46.50205" lon="6.70593"><ele>527</ele><time>2018-05-25T17:16:39Z</time></trkpt>
<trkpt lat="46.5021" lon="6.70575"><ele>523.4</ele><time>2018-05-25T17:16:41Z</time></trkpt>
<trkpt lat="46.50211" lon="6.70544"><ele>518</ele><time>2018-05-25T17:16:44Z</time></trkpt>
<trkpt lat="46.50206" lon="6.70511"><ele>514.6</ele><time>2018-05-25T17:16:47Z</time></trkpt>
<trkpt lat="46.50199" lon="6.7049"><ele>512.4</ele><time>2018-05-25T17:16:49Z</time></trkpt>
<trkpt lat="46.50195" lon="6.7048"><ele>511.2</ele><time>2018-05-25T17:16:50Z</time></trkpt>
<trkpt lat="46.50184" lon="6.7045"><ele>508</ele><time>2018-05-25T17:16:53Z</time></trkpt>
<trkpt lat="46.50175" lon="6.70431"><ele>505.8</ele><time>2018-05-25T17:16:55Z</time></trkpt>
<trkpt lat="46.50159" lon="6.70407"><ele>502</ele><time>2018-05-25T17:16:58Z</time></trkpt>
<trkpt lat="46.5015" lon="6.70391"><ele>499.4</ele><time>2018-05-25T17:17:00Z</time></trkpt>
<trkpt lat="46.50144" lon="6.70377"><ele>497.4</ele><time>2018-05-25T17:17:02Z</time></trkpt>
<trkpt lat="46.50143" lon="6.70367"><ele>496.4</ele><time>2018-05-25T17:17:04Z</time></trkpt>
<trkpt lat="46.50143" lon="6.70363"><ele>496</ele><time>2018-05-25T17:17:05Z</time></trkpt>
<trkpt lat="46.50142" lon="6.70362"><ele>495.8</ele><time>2018-05-25T17:17:06Z</time></trkpt>
<trkpt lat="46.50142" lon="6.70359"><ele>495.2</ele><time>2018-05-25T17:17:08Z</time></trkpt>
<trkpt lat="46.50131" lon="6.70352"><ele>493</ele><time>2018-05-25T17:17:12Z</time></trkpt>
<trkpt lat="46.50121" lon="6.7035"><ele>491.2</ele><time>2018-05-25T17:17:14Z</time></trkpt>
<trkpt lat="46.50101" lon="6.70359"><ele>487.6</ele><time>2018-05-25T17:17:18Z</time></trkpt>
<trkpt lat="46.50096" lon="6.70363"><ele>486.4</ele><time>2018-05-25T17:17:19Z</time></trkpt>
<trkpt lat="46.5008" lon="6.70379"><ele>482.2</ele><time>2018-05-25T17:17:22Z</time></trkpt>
<trkpt lat="46.50059" lon="6.70396"><ele>477.6</ele><time>2018-05-25T17:17:25Z</time></trkpt>
<trkpt lat="46.50036" lon="6.70406"><ele>473.6</ele><time>2018-05-25T17:17:28Z</time></trkpt>
<trkpt lat="46.50023" lon="6.70411"><ele>471</ele><time>2018-05-25T17:17:30Z</time></trkpt>
<trkpt lat="46.50008" lon="6.70416"><ele>469.2</ele><time>2018-05-25T17:17:33Z</time></trkpt>
<trkpt lat="46.49988" lon="6.70432"><ele>466.4</ele><time>2018-05-25T17:17:37Z</time></trkpt>
<trkpt lat="46.49984" lon="6.70437"><ele>465.6</ele><time>2018-05-25T17:17:38Z</time></trkpt>
<trkpt lat="46.49968" lon="6.70458"><ele>463.6</ele><time>2018-05-25T17:17:42Z</time></trkpt>
<trkpt lat="46.49952" lon="6.70478"><ele>461.8</ele><time>2018-05-25T17:17:47Z</time></trkpt>
<trkpt lat="46.4994" lon="6.70514"><ele>460.6</ele><time>2018-05-25T17:17:54Z</time></trkpt>
<trkpt lat="46.49928" lon="6.70537"><ele>461.2</ele><time>2018-05-25T17:17:59Z</time></trkpt>
<trkpt lat="46.49915" lon="6.70561"><ele>462.8</ele><time>2018-05-25T17:18:05Z</time></trkpt>
<trkpt lat="46.4991" lon="6.70571"><ele>463.6</ele><time>2018-05-25T17:18:08Z</time></trkpt>
<trkpt lat="46.49903" lon="6.70583"><ele>464.6</ele><time>2018-05-25T17:18:12Z</time></trkpt>
<trkpt lat="46.49898" lon="6.70592"><ele>465.6</ele><time>2018-05-25T17:18:15Z</time></trkpt>
<trkpt lat="46.49897" lon="6.70595"><ele>465.8</ele><time>2018-05-25T17:18:16Z</time></trkpt>
<trkpt lat="46.49895" lon="6.70598"><ele>466</ele><time>2018-05-25T17:18:17Z</time></trkpt>
<trkpt lat="46.49888" lon="6.70615"><ele>466.4</ele><time>2018-05-25T17:18:22Z</time></trkpt>
<trkpt lat="46.49884" lon="6.70623"><ele>466</ele><time>2018-05-25T17:18:24Z</time></trkpt>
<trkpt lat="46.49879" lon="6.70632"><ele>465.2</ele><time>2018-05-25T17:18:26Z</time></trkpt>
<trkpt lat="46.49876" lon="6.70639"><ele>464.8</ele><time>2018-05-25T17:18:27Z</time></trkpt>
<trkpt lat="46.49866" lon="6.70656"><ele>464</ele><time>2018-05-25T17:18:30Z</time></trkpt>
<trkpt lat="46.4986" lon="6.70668"><ele>463.4</ele><time>2018-05-25T17:18:32Z</time></trkpt>
<trkpt lat="46.49858" lon="6.707"><ele>460.4</ele><time>2018-05-25T17:18:36Z</time></trkpt>
<trkpt lat="46.49862" lon="6.70713"><ele>459.6</ele><time>2018-05-25T17:18:38Z</time></trkpt>
<trkpt lat="46.49867" lon="6.70734"><ele>459</ele><time>2018-05-25T17:18:42Z</time></trkpt>
<trkpt lat="46.4987" lon="6.70744"><ele>459.4</ele><time>2018-05-25T17:18:44Z</time></trkpt>
<trkpt lat="46.49874" lon="6.70756"><ele>460.2</ele><time>2018-05-25T17:18:47Z</time></trkpt>
<trkpt lat="46.49875" lon="6.7076"><ele>461.8</ele><time>2018-05-25T17:18:49Z</time></trkpt>
<trkpt lat="46.49882" lon="6.70792"><ele>464</ele><time>2018-05-25T17:19:02Z</time></trkpt>
<trkpt lat="46.49884" lon="6.70804"><ele>464.4</ele><time>2018-05-25T17:19:07Z</time></trkpt>
<trkpt lat="46.49885" lon="6.70809"><ele>464.6</ele><time>2018-05-25T17:19:09Z</time></trkpt>
<trkpt lat="46.49886" lon="6.7082"><ele>464.8</ele><time>2018-05-25T17:19:14Z</time></trkpt>
<trkpt lat="46.49889" lon="6.70844"><ele>465</ele><time>2018-05-25T17:19:26Z</time></trkpt>
<trkpt lat="46.4989" lon="6.70845"><ele>465.2</ele><time>2018-05-25T17:19:27Z</time></trkpt>
<trkpt lat="46.4989" lon="6.70852"><ele>465.4</ele><time>2018-05-25T17:19:31Z</time></trkpt>
<trkpt lat="46.49889" lon="6.70856"><ele>466</ele><time>2018-05-25T17:19:35Z</time></trkpt>
<trkpt lat="46.49886" lon="6.70855"><ele>466.6</ele><time>2018-05-25T17:19:42Z</time></trkpt>
<trkpt lat="46.49886" lon="6.70838"><ele>466.6</ele><time>2018-05-25T17:19:48Z</time></trkpt>
<trkpt lat="46.49875" lon="6.70816"><ele>465.2</ele><time>2018-05-25T17:19:55Z</time></trkpt>
<trkpt lat="46.49869" lon="6.70807"><ele>464.2</ele><time>2018-05-25T17:19:57Z</time></trkpt>
<trkpt lat="46.49854" lon="6.70798"><ele>461.6</ele><time>2018-05-25T17:20:01Z</time></trkpt>
<trkpt lat="46.49841" lon="6.70795"><ele>459.2</ele><time>2018-05-25T17:20:04Z</time></trkpt>
<trkpt lat="46.49823" lon="6.7079"><ele>454.6</ele><time>2018-05-25T17:20:08Z</time></trkpt>
<trkpt lat="46.49805" lon="6.70788"><ele>449.4</ele><time>2018-05-25T17:20:12Z</time></trkpt>
<trkpt lat="46.49782" lon="6.70783"><ele>442</ele><time>2018-05-25T17:20:17Z</time></trkpt>
<trkpt lat="46.49761" lon="6.70774"><ele>435.4</ele><time>2018-05-25T17:20:21Z</time></trkpt>
<trkpt lat="46.4975" lon="6.70768"><ele>432</ele><time>2018-05-25T17:20:23Z</time></trkpt>
<trkpt lat="46.49732" lon="6.70757"><ele>426.8</ele><time>2018-05-25T17:20:26Z</time></trkpt>
<trkpt lat="46.49721" lon="6.70752"><ele>425.2</ele><time>2018-05-25T17:20:28Z</time></trkpt>
<trkpt lat="46.49701" lon="6.70765"><ele>423.4</ele><time>2018-05-25T17:20:32Z</time></trkpt>
<trkpt lat="46.49689" lon="6.70778"><ele>421.6</ele><time>2018-05-25T17:20:35Z</time></trkpt>
<trkpt lat="46.49669" lon="6.70786"><ele>418.4</ele><time>2018-05-25T17:20:39Z</time></trkpt>
<trkpt lat="46.49664" lon="6.70786"><ele>417.6</ele><time>2018-05-25T17:20:40Z</time></trkpt>
<trkpt lat="46.49659" lon="6.70788"><ele>416.8</ele><time>2018-05-25T17:20:41Z</time></trkpt>
<trkpt lat="46.49642" lon="6.70798"><ele>413.8</ele><time>2018-05-25T17:20:44Z</time></trkpt>
<trkpt lat="46.49635" lon="6.70804"><ele>412.8</ele><time>2018-05-25T17:20:45Z</time></trkpt>
<trkpt lat="46.49622" lon="6.70818"><ele>410.4</ele><time>2018-05-25T17:20:47Z</time></trkpt>
<trkpt lat="46.49602" lon="6.70838"><ele>407.2</ele><time>2018-05-25T17:20:50Z</time></trkpt>
<trkpt lat="46.49595" lon="6.70844"><ele>406</ele><time>2018-05-25T17:20:51Z</time></trkpt>
<trkpt lat="46.49572" lon="6.70849"><ele>401.8</ele><time>2018-05-25T17:20:54Z</time></trkpt>
<trkpt lat="46.49566" lon="6.70848"><ele>400.6</ele><time>2018-05-25T17:20:55Z</time></trkpt>
<trkpt lat="46.49546" lon="6.70848"><ele>397.4</ele><time>2018-05-25T17:21:00Z</time></trkpt>
<trkpt lat="46.49544" lon="6.70849"><ele>397.2</ele><time>2018-05-25T17:21:01Z</time></trkpt>
<trkpt lat="46.49535" lon="6.70867"><ele>396.2</ele><time>2018-05-25T17:21:05Z</time></trkpt>
<trkpt lat="46.49533" lon="6.70872"><ele>396.4</ele><time>2018-05-25T17:21:06Z</time></trkpt>
<trkpt lat="46.49529" lon="6.7088"><ele>396.2</ele><time>2018-05-25T17:21:08Z</time></trkpt>
<trkpt lat="46.49515" lon="6.70906"><ele>396.2</ele><time>2018-05-25T17:21:14Z</time></trkpt>
<trkpt lat="46.49505" lon="6.70919"><ele>395.6</ele><time>2018-05-25T17:21:18Z</time></trkpt>
<trkpt lat="46.49498" lon="6.70929"><ele>395</ele><time>2018-05-25T17:21:21Z</time></trkpt>
<trkpt lat="46.49488" lon="6.70954"><ele>396.2</ele><time>2018-05-25T17:21:28Z</time></trkpt>
<trkpt lat="46.49485" lon="6.7096"><ele>396.4</ele><time>2018-05-25T17:21:30Z</time></trkpt>
<trkpt lat="46.49474" lon="6.70984"><ele>395.6</ele><time>2018-05-25T17:21:38Z</time></trkpt>
<trkpt lat="46.49466" lon="6.70997"><ele>396.2</ele><time>2018-05-25T17:21:43Z</time></trkpt>
<trkpt lat="46.49459" lon="6.7101"><ele>396.8</ele><time>2018-05-25T17:21:48Z</time></trkpt>
<trkpt lat="46.49436" lon="6.71037"><ele>396.4</ele><time>2018-05-25T17:21:59Z</time></trkpt>
<trkpt lat="46.4942" lon="6.71049"><ele>397.2</ele><time>2018-05-25T17:22:04Z</time></trkpt>
<trkpt lat="46.49403" lon="6.71061"><ele>397.2</ele><time>2018-05-25T17:22:09Z</time></trkpt>
<trkpt lat="46.49394" lon="6.71066"><ele>397.2</ele><time>2018-05-25T17:22:11Z</time></trkpt>
<trkpt lat="46.49389" lon="6.71069"><ele>397.2</ele><time>2018-05-25T17:22:12Z</time></trkpt>
<trkpt lat="46.49372" lon="6.71082"><ele>396.8</ele><time>2018-05-25T17:22:15Z</time></trkpt>
<trkpt lat="46.49355" lon="6.71098"><ele>396.6</ele><time>2018-05-25T17:22:18Z</time></trkpt>
<trkpt lat="46.49339" lon="6.71122"><ele>395.4</ele><time>2018-05-25T17:22:22Z</time></trkpt>
<trkpt lat="46.49327" lon="6.71144"><ele>395.8</ele><time>2018-05-25T17:22:26Z</time></trkpt>
<trkpt lat="46.49316" lon="6.71167"><ele>397.2</ele><time>2018-05-25T17:22:34Z</time></trkpt>
<trkpt lat="46.49314" lon="6.7117"><ele>397.6</ele><time>2018-05-25T17:22:35Z</time></trkpt>
<trkpt lat="46.49303" lon="6.71191"><ele>398.6</ele><time>2018-05-25T17:22:42Z</time></trkpt>
<trkpt lat="46.49288" lon="6.71212"><ele>400</ele><time>2018-05-25T17:22:49Z</time></trkpt>
<trkpt lat="46.49276" lon="6.71224"><ele>400.8</ele><time>2018-05-25T17:22:54Z</time></trkpt>
<trkpt lat="46.49267" lon="6.71233"><ele>401.6</ele><time>2018-05-25T17:22:58Z</time></trkpt>
<trkpt lat="46.49251" lon="6.7125"><ele>402.4</ele><time>2018-05-25T17:23:05Z</time></trkpt>
<trkpt lat="46.49236" lon="6.71268"><ele>403.2</ele><time>2018-05-25T17:23:12Z</time></trkpt>
<trkpt lat="46.49228" lon="6.7128"><ele>404</ele><time>2018-05-25T17:23:16Z</time></trkpt>
<trkpt lat="46.49226" lon="6.71283"><ele>404.6</ele><time>2018-05-25T17:23:17Z</time></trkpt>
<trkpt lat="46.49222" lon="6.71291"><ele>405.4</ele><time>2018-05-25T17:23:19Z</time></trkpt>
<trkpt lat="46.49219" lon="6.71298"><ele>406.2</ele><time>2018-05-25T17:23:21Z</time></trkpt>
<trkpt lat="46.49208" lon="6.71323"><ele>405.8</ele><time>2018-05-25T17:23:28Z</time></trkpt>
<trkpt lat="46.49203" lon="6.71351"><ele>406.6</ele><time>2018-05-25T17:23:33Z</time></trkpt>
<trkpt lat="46.49201" lon="6.71378"><ele>408.6</ele><time>2018-05-25T17:23:40Z</time></trkpt>
<trkpt lat="46.49201" lon="6.71405"><ele>409.6</ele><time>2018-05-25T17:23:47Z</time></trkpt>
<trkpt lat="46.49199" lon="6.71437"><ele>408</ele><time>2018-05-25T17:23:52Z</time></trkpt>
<trkpt lat="46.49194" lon="6.71464"><ele>407.2</ele><time>2018-05-25T17:23:55Z</time></trkpt>
<trkpt lat="46.49192" lon="6.71474"><ele>407</ele><time>2018-05-25T17:23:56Z</time></trkpt>
<trkpt lat="46.49184" lon="6.71502"><ele>407.8</ele><time>2018-05-25T17:23:59Z</time></trkpt>
<trkpt lat="46.49179" lon="6.71518"><ele>408.6</ele><time>2018-05-25T17:24:01Z</time></trkpt>
<trkpt lat="46.49173" lon="6.71542"><ele>410.2</ele><time>2018-05-25T17:24:05Z</time></trkpt>
<trkpt lat="46.49162" lon="6.71563"><ele>411.4</ele><time>2018-05-25T17:24:11Z</time></trkpt>
<trkpt lat="46.49148" lon="6.71591"><ele>413.8</ele><time>2018-05-25T17:24:21Z</time></trkpt>
<trkpt lat="46.49136" lon="6.71614"><ele>414.6</ele><time>2018-05-25T17:24:29Z</time></trkpt>
<trkpt lat="46.49124" lon="6.71633"><ele>415</ele><time>2018-05-25T17:24:35Z</time></trkpt>
<trkpt lat="46.49109" lon="6.71653"><ele>415</ele><time>2018-05-25T17:24:41Z</time></trkpt>
<trkpt lat="46.49095" lon="6.71676"><ele>414.4</ele><time>2018-05-25T17:24:47Z</time></trkpt>
<trkpt lat="46.49082" lon="6.71698"><ele>413</ele><time>2018-05-25T17:24:51Z</time></trkpt>
<trkpt lat="46.49068" lon="6.71717"><ele>411.8</ele><time>2018-05-25T17:24:54Z</time></trkpt>
<trkpt lat="46.4905" lon="6.71737"><ele>409</ele><time>2018-05-25T17:24:57Z</time></trkpt>
<trkpt lat="46.49028" lon="6.71758"><ele>406</ele><time>2018-05-25T17:25:00Z</time></trkpt>
<trkpt lat="46.49007" lon="6.71781"><ele>404</ele><time>2018-05-25T17:25:03Z</time></trkpt>
<trkpt lat="46.48992" lon="6.71792"><ele>402</ele><time>2018-05-25T17:25:05Z</time></trkpt>
<trkpt lat="46.48985" lon="6.71799"><ele>401.4</ele><time>2018-05-25T17:25:06Z</time></trkpt>
<trkpt lat="46.48968" lon="6.71827"><ele>400.2</ele><time>2018-05-25T17:25:09Z</time></trkpt>
<trkpt lat="46.48951" lon="6.71853"><ele>399</ele><time>2018-05-25T17:25:12Z</time></trkpt>
<trkpt lat="46.48936" lon="6.7188"><ele>400</ele><time>2018-05-25T17:25:15Z</time></trkpt>
<trkpt lat="46.48921" lon="6.71905"><ele>400.6</ele><time>2018-05-25T17:25:18Z</time></trkpt>
<trkpt lat="46.48908" lon="6.71931"><ele>402.4</ele><time>2018-05-25T17:25:22Z</time></trkpt>
<trkpt lat="46.48902" lon="6.71945"><ele>403.2</ele><time>2018-05-25T17:25:25Z</time></trkpt>
<trkpt lat="46.48887" lon="6.71966"><ele>404</ele><time>2018-05-25T17:25:31Z</time></trkpt>
<trkpt lat="46.48879" lon="6.71978"><ele>404</ele><time>2018-05-25T17:25:34Z</time></trkpt>
<trkpt lat="46.48864" lon="6.72001"><ele>403.8</ele><time>2018-05-25T17:25:39Z</time></trkpt>
<trkpt lat="46.48852" lon="6.72026"><ele>403.4</ele><time>2018-05-25T17:25:43Z</time></trkpt>
<trkpt lat="46.48841" lon="6.72053"><ele>403.8</ele><time>2018-05-25T17:25:47Z</time></trkpt>
<trkpt lat="46.48831" lon="6.7208"><ele>404.2</ele><time>2018-05-25T17:25:51Z</time></trkpt>
<trkpt lat="46.48823" lon="6.72109"><ele>404.8</ele><time>2018-05-25T17:25:55Z</time></trkpt>
<trkpt lat="46.48818" lon="6.7214"><ele>406.2</ele><time>2018-05-25T17:25:59Z</time></trkpt>
<trkpt lat="46.48817" lon="6.72155"><ele>406.8</ele><time>2018-05-25T17:26:01Z</time></trkpt>
<trkpt lat="46.48819" lon="6.72183"><ele>407.2</ele><time>2018-05-25T17:26:06Z</time></trkpt>
<trkpt lat="46.4882" lon="6.72202"><ele>406.2</ele><time>2018-05-25T17:26:09Z</time></trkpt>
<trkpt lat="46.48822" lon="6.72236"><ele>404.4</ele><time>2018-05-25T17:26:13Z</time></trkpt>
<trkpt lat="46.48823" lon="6.72266"><ele>403</ele><time>2018-05-25T17:26:16Z</time></trkpt>
<trkpt lat="46.48823" lon="6.72298"><ele>401.8</ele><time>2018-05-25T17:26:19Z</time></trkpt>
<trkpt lat="46.48823" lon="6.72309"><ele>401.6</ele><time>2018-05-25T17:26:20Z</time></trkpt>
<trkpt lat="46.48824" lon="6.72342"><ele>400.4</ele><time>2018-05-25T17:26:23Z</time></trkpt>
<trkpt lat="46.48825" lon="6.72353"><ele>400</ele><time>2018-05-25T17:26:24Z</time></trkpt>
<trkpt lat="46.48831" lon="6.72385"><ele>398.2</ele><time>2018-05-25T17:26:27Z</time></trkpt>
<trkpt lat="46.48837" lon="6.72403"><ele>397.2</ele><time>2018-05-25T17:26:29Z</time></trkpt>
<trkpt lat="46.48839" lon="6.72411"><ele>396.8</ele><time>2018-05-25T17:26:30Z</time></trkpt>
<trkpt lat="46.4884" lon="6.72442"><ele>396.6</ele><time>2018-05-25T17:26:34Z</time></trkpt>
<trkpt lat="46.48839" lon="6.72469"><ele>396.6</ele><time>2018-05-25T17:26:38Z</time></trkpt>
<trkpt lat="46.48839" lon="6.72475"><ele>396.4</ele><time>2018-05-25T17:26:39Z</time></trkpt>
<trkpt lat="46.48839" lon="6.72509"><ele>395.2</ele><time>2018-05-25T17:26:45Z</time></trkpt>
<trkpt lat="46.48831" lon="6.72522"><ele>395</ele><time>2018-05-25T17:26:48Z</time></trkpt>
<trkpt lat="46.48828" lon="6.72548"><ele>395.4</ele><time>2018-05-25T17:26:54Z</time></trkpt>
<trkpt lat="46.48834" lon="6.72569"><ele>395</ele><time>2018-05-25T17:27:01Z</time></trkpt>
<trkpt lat="46.48836" lon="6.72574"><ele>395</ele><time>2018-05-25T17:27:03Z</time></trkpt>
<trkpt lat="46.48838" lon="6.72584"><ele>394.6</ele><time>2018-05-25T17:27:07Z</time></trkpt>
<trkpt lat="46.48842" lon="6.72586"><ele>395</ele><time>2018-05-25T17:27:10Z</time></trkpt>
<trkpt lat="46.48843" lon="6.72585"><ele>395.2</ele><time>2018-05-25T17:27:12Z</time></trkpt>
<trkpt lat="46.48843" lon="6.72585"><ele>395.2</ele><time>2018-05-25T17:27:20Z</time></trkpt>
<trkpt lat="46.48842" lon="6.72585"><ele>395.8</ele><time>2018-05-25T17:27:28Z</time></trkpt>
<trkpt lat="46.48842" lon="6.72585"><ele>396</ele><time>2018-05-25T17:27:31Z</time></trkpt>
<trkpt lat="46.48842" lon="6.72585"><ele>396</ele><time>2018-05-25T17:27:33Z</time></trkpt>
<trkpt lat="46.48842" lon="6.72584"><ele>398</ele><time>2018-05-25T17:27:54Z</time></trkpt>
</trkseg></trk></gpx>